<?xml version="1.0" encoding="utf-8"?>
<gpx xmlns:xsi="http://www.w3.org/2001/XMLSchema-instance" xmlns:xsd="http://www.w3.org/2001/XMLSchema" version="1.1" creator="Shapelink.com" xmlns="http://www.topografix.com/GPX/1/1" xmlns:gpxtpx="http://www.garmin.com/xmlschemas/TrackPointExtension/v1">
  <metadata>
    <name>Løping 2.27 km, 2014-06-25</name>
    <desc></desc>
    <author><name>Mikael Blom</name></author> 
    <time>2014-06-25T19:14:00Z</time>
  </metadata>
  <trk>
    <name>Løping 2.27 km, 2014-06-25</name>
    <trkseg>
      <trkpt lat="59.9539835" lon="17.7148036">
        <ele>55.8938</ele>
        <time>2014-06-25T19:14:00Z</time>
      </trkpt>
      <trkpt lat="59.9539771" lon="17.7148228">
        <ele>55.8938</ele>
        <time>2014-06-25T19:14:01Z</time>
      </trkpt>
      <trkpt lat="59.9539631" lon="17.7148359">
        <ele>55.4131</ele>
        <time>2014-06-25T19:14:02Z</time>
      </trkpt>
      <trkpt lat="59.9539447" lon="17.7148422">
        <ele>54.4518</ele>
        <time>2014-06-25T19:14:03Z</time>
      </trkpt>
      <trkpt lat="59.9539227" lon="17.7148655">
        <ele>55.4131</ele>
        <time>2014-06-25T19:14:04Z</time>
      </trkpt>
      <trkpt lat="59.9538994" lon="17.7148705">
        <ele>54.9324</ele>
        <time>2014-06-25T19:14:05Z</time>
      </trkpt>
      <trkpt lat="59.9538766" lon="17.7148961">
        <ele>54.9324</ele>
        <time>2014-06-25T19:14:06Z</time>
      </trkpt>
      <trkpt lat="59.9538505" lon="17.7149123">
        <ele>54.9324</ele>
        <time>2014-06-25T19:14:07Z</time>
      </trkpt>
      <trkpt lat="59.9538215" lon="17.7149211">
        <ele>53.9712</ele>
        <time>2014-06-25T19:14:08Z</time>
      </trkpt>
      <trkpt lat="59.9537909" lon="17.7149318">
        <ele>52.5292</ele>
        <time>2014-06-25T19:14:09Z</time>
      </trkpt>
      <trkpt lat="59.953756" lon="17.7149379">
        <ele>51.5679</ele>
        <time>2014-06-25T19:14:10Z</time>
      </trkpt>
      <trkpt lat="59.9537198" lon="17.7149566">
        <ele>51.0872</ele>
        <time>2014-06-25T19:14:11Z</time>
      </trkpt>
      <trkpt lat="59.9536898" lon="17.7149851">
        <ele>50.6066</ele>
        <time>2014-06-25T19:14:12Z</time>
      </trkpt>
      <trkpt lat="59.9536624" lon="17.7150146">
        <ele>51.0872</ele>
        <time>2014-06-25T19:14:13Z</time>
      </trkpt>
      <trkpt lat="59.9536332" lon="17.7150307">
        <ele>51.0872</ele>
        <time>2014-06-25T19:14:14Z</time>
      </trkpt>
      <trkpt lat="59.9536048" lon="17.7150613">
        <ele>52.0486</ele>
        <time>2014-06-25T19:14:15Z</time>
      </trkpt>
      <trkpt lat="59.9535834" lon="17.7150931">
        <ele>52.0486</ele>
        <time>2014-06-25T19:14:16Z</time>
      </trkpt>
      <trkpt lat="59.9535575" lon="17.715128">
        <ele>53.4905</ele>
        <time>2014-06-25T19:14:17Z</time>
      </trkpt>
      <trkpt lat="59.9535299" lon="17.7151558">
        <ele>53.9712</ele>
        <time>2014-06-25T19:14:18Z</time>
      </trkpt>
      <trkpt lat="59.9535069" lon="17.7151845">
        <ele>54.4518</ele>
        <time>2014-06-25T19:14:19Z</time>
      </trkpt>
      <trkpt lat="59.95348" lon="17.7152095">
        <ele>55.8938</ele>
        <time>2014-06-25T19:14:20Z</time>
      </trkpt>
      <trkpt lat="59.9534555" lon="17.7152507">
        <ele>56.3745</ele>
        <time>2014-06-25T19:14:21Z</time>
      </trkpt>
      <trkpt lat="59.9534361" lon="17.7152923">
        <ele>57.8165</ele>
        <time>2014-06-25T19:14:22Z</time>
      </trkpt>
      <trkpt lat="59.9534193" lon="17.7153233">
        <ele>57.8165</ele>
        <time>2014-06-25T19:14:23Z</time>
      </trkpt>
      <trkpt lat="59.9533976" lon="17.7153464">
        <ele>57.3358</ele>
        <time>2014-06-25T19:14:24Z</time>
      </trkpt>
      <trkpt lat="59.9533785" lon="17.7153902">
        <ele>57.3358</ele>
        <time>2014-06-25T19:14:25Z</time>
      </trkpt>
      <trkpt lat="59.9533598" lon="17.7154336">
        <ele>58.7777</ele>
        <time>2014-06-25T19:14:26Z</time>
      </trkpt>
      <trkpt lat="59.9533359" lon="17.7154806">
        <ele>59.2584</ele>
        <time>2014-06-25T19:14:27Z</time>
      </trkpt>
      <trkpt lat="59.9533122" lon="17.7155111">
        <ele>59.7391</ele>
        <time>2014-06-25T19:14:28Z</time>
      </trkpt>
      <trkpt lat="59.9532872" lon="17.7155552">
        <ele>61.181</ele>
        <time>2014-06-25T19:14:29Z</time>
      </trkpt>
      <trkpt lat="59.9532634" lon="17.7155905">
        <ele>62.1423</ele>
        <time>2014-06-25T19:14:30Z</time>
      </trkpt>
      <trkpt lat="59.9532448" lon="17.7156301">
        <ele>62.6229</ele>
        <time>2014-06-25T19:14:31Z</time>
      </trkpt>
      <trkpt lat="59.9532209" lon="17.7156687">
        <ele>62.6229</ele>
        <time>2014-06-25T19:14:32Z</time>
      </trkpt>
      <trkpt lat="59.9532024" lon="17.7157139">
        <ele>62.6229</ele>
        <time>2014-06-25T19:14:33Z</time>
      </trkpt>
      <trkpt lat="59.9531843" lon="17.7157715">
        <ele>64.0651</ele>
        <time>2014-06-25T19:14:34Z</time>
      </trkpt>
      <trkpt lat="59.9531641" lon="17.7158252">
        <ele>65.0264</ele>
        <time>2014-06-25T19:14:35Z</time>
      </trkpt>
      <trkpt lat="59.9531423" lon="17.7158713">
        <ele>65.9877</ele>
        <time>2014-06-25T19:14:36Z</time>
      </trkpt>
      <trkpt lat="59.953124" lon="17.7159106">
        <ele>65.9877</ele>
        <time>2014-06-25T19:14:37Z</time>
      </trkpt>
      <trkpt lat="59.9531082" lon="17.7159378">
        <ele>64.5457</ele>
        <time>2014-06-25T19:14:38Z</time>
      </trkpt>
      <trkpt lat="59.9530915" lon="17.7159746">
        <ele>63.1036</ele>
        <time>2014-06-25T19:14:39Z</time>
      </trkpt>
      <trkpt lat="59.9530786" lon="17.716023">
        <ele>62.1423</ele>
        <time>2014-06-25T19:14:40Z</time>
      </trkpt>
      <trkpt lat="59.9530708" lon="17.7160578">
        <ele>60.7003</ele>
        <time>2014-06-25T19:14:41Z</time>
      </trkpt>
      <trkpt lat="59.9530646" lon="17.7160942">
        <ele>59.2584</ele>
        <time>2014-06-25T19:14:42Z</time>
      </trkpt>
      <trkpt lat="59.9530533" lon="17.716135">
        <ele>57.8165</ele>
        <time>2014-06-25T19:14:43Z</time>
      </trkpt>
      <trkpt lat="59.9530387" lon="17.7161743">
        <ele>57.3358</ele>
        <time>2014-06-25T19:14:44Z</time>
      </trkpt>
      <trkpt lat="59.9530252" lon="17.7162266">
        <ele>57.3358</ele>
        <time>2014-06-25T19:14:45Z</time>
      </trkpt>
      <trkpt lat="59.9530116" lon="17.7162728">
        <ele>56.3745</ele>
        <time>2014-06-25T19:14:46Z</time>
      </trkpt>
      <trkpt lat="59.9529939" lon="17.7163182">
        <ele>55.4131</ele>
        <time>2014-06-25T19:14:47Z</time>
      </trkpt>
      <trkpt lat="59.9529776" lon="17.7163607">
        <ele>54.4518</ele>
        <time>2014-06-25T19:14:48Z</time>
      </trkpt>
      <trkpt lat="59.9529698" lon="17.7164083">
        <ele>53.9712</ele>
        <time>2014-06-25T19:14:49Z</time>
      </trkpt>
      <trkpt lat="59.9529605" lon="17.7164593">
        <ele>53.4905</ele>
        <time>2014-06-25T19:14:50Z</time>
      </trkpt>
      <trkpt lat="59.9529527" lon="17.7165163">
        <ele>53.0098</ele>
        <time>2014-06-25T19:14:51Z</time>
      </trkpt>
      <trkpt lat="59.952946" lon="17.7165696">
        <ele>53.0098</ele>
        <time>2014-06-25T19:14:52Z</time>
      </trkpt>
      <trkpt lat="59.9529437" lon="17.716622">
        <ele>52.0486</ele>
        <time>2014-06-25T19:14:53Z</time>
      </trkpt>
      <trkpt lat="59.9529367" lon="17.7166763">
        <ele>52.0486</ele>
        <time>2014-06-25T19:14:54Z</time>
      </trkpt>
      <trkpt lat="59.9529346" lon="17.7167309">
        <ele>52.0486</ele>
        <time>2014-06-25T19:14:55Z</time>
      </trkpt>
      <trkpt lat="59.9529273" lon="17.716781">
        <ele>51.5679</ele>
        <time>2014-06-25T19:14:56Z</time>
      </trkpt>
      <trkpt lat="59.9529184" lon="17.7168365">
        <ele>52.5292</ele>
        <time>2014-06-25T19:14:57Z</time>
      </trkpt>
      <trkpt lat="59.952908" lon="17.7168887">
        <ele>52.5292</ele>
        <time>2014-06-25T19:14:58Z</time>
      </trkpt>
      <trkpt lat="59.9528996" lon="17.7169447">
        <ele>53.4905</ele>
        <time>2014-06-25T19:14:59Z</time>
      </trkpt>
      <trkpt lat="59.9528966" lon="17.7169906">
        <ele>52.5292</ele>
        <time>2014-06-25T19:15:00Z</time>
      </trkpt>
      <trkpt lat="59.9528896" lon="17.7170501">
        <ele>53.4905</ele>
        <time>2014-06-25T19:15:01Z</time>
      </trkpt>
      <trkpt lat="59.9528808" lon="17.717112">
        <ele>53.4905</ele>
        <time>2014-06-25T19:15:02Z</time>
      </trkpt>
      <trkpt lat="59.9528688" lon="17.7171642">
        <ele>53.4905</ele>
        <time>2014-06-25T19:15:03Z</time>
      </trkpt>
      <trkpt lat="59.9528554" lon="17.7172072">
        <ele>53.4905</ele>
        <time>2014-06-25T19:15:04Z</time>
      </trkpt>
      <trkpt lat="59.9528398" lon="17.7172439">
        <ele>53.0098</ele>
        <time>2014-06-25T19:15:05Z</time>
      </trkpt>
      <trkpt lat="59.952824" lon="17.7172812">
        <ele>52.5292</ele>
        <time>2014-06-25T19:15:06Z</time>
      </trkpt>
      <trkpt lat="59.9528086" lon="17.7173182">
        <ele>53.0098</ele>
        <time>2014-06-25T19:15:07Z</time>
      </trkpt>
      <trkpt lat="59.9527932" lon="17.7173812">
        <ele>53.9712</ele>
        <time>2014-06-25T19:15:08Z</time>
      </trkpt>
      <trkpt lat="59.9527767" lon="17.7174249">
        <ele>53.9712</ele>
        <time>2014-06-25T19:15:09Z</time>
      </trkpt>
      <trkpt lat="59.9527611" lon="17.7174713">
        <ele>53.9712</ele>
        <time>2014-06-25T19:15:10Z</time>
      </trkpt>
      <trkpt lat="59.9527494" lon="17.71752">
        <ele>53.9712</ele>
        <time>2014-06-25T19:15:11Z</time>
      </trkpt>
      <trkpt lat="59.9527335" lon="17.717557">
        <ele>53.4905</ele>
        <time>2014-06-25T19:15:12Z</time>
      </trkpt>
      <trkpt lat="59.9527159" lon="17.7176181">
        <ele>54.9324</ele>
        <time>2014-06-25T19:15:13Z</time>
      </trkpt>
      <trkpt lat="59.9527013" lon="17.7176607">
        <ele>54.9324</ele>
        <time>2014-06-25T19:15:14Z</time>
      </trkpt>
      <trkpt lat="59.9526849" lon="17.7177062">
        <ele>54.4518</ele>
        <time>2014-06-25T19:15:15Z</time>
      </trkpt>
      <trkpt lat="59.95267" lon="17.7177554">
        <ele>54.4518</ele>
        <time>2014-06-25T19:15:16Z</time>
      </trkpt>
      <trkpt lat="59.9526579" lon="17.7178119">
        <ele>54.9324</ele>
        <time>2014-06-25T19:15:17Z</time>
      </trkpt>
      <trkpt lat="59.952645" lon="17.7178579">
        <ele>54.9324</ele>
        <time>2014-06-25T19:15:18Z</time>
      </trkpt>
      <trkpt lat="59.9526324" lon="17.7179081">
        <ele>54.9324</ele>
        <time>2014-06-25T19:15:19Z</time>
      </trkpt>
      <trkpt lat="59.9526207" lon="17.7179631">
        <ele>55.4131</ele>
        <time>2014-06-25T19:15:20Z</time>
      </trkpt>
      <trkpt lat="59.9526072" lon="17.7180149">
        <ele>55.4131</ele>
        <time>2014-06-25T19:15:21Z</time>
      </trkpt>
      <trkpt lat="59.9525927" lon="17.7180652">
        <ele>54.9324</ele>
        <time>2014-06-25T19:15:22Z</time>
      </trkpt>
      <trkpt lat="59.9525791" lon="17.7181216">
        <ele>53.9712</ele>
        <time>2014-06-25T19:15:23Z</time>
      </trkpt>
      <trkpt lat="59.9525657" lon="17.7181797">
        <ele>53.9712</ele>
        <time>2014-06-25T19:15:24Z</time>
      </trkpt>
      <trkpt lat="59.9525583" lon="17.7182225">
        <ele>53.9712</ele>
        <time>2014-06-25T19:15:25Z</time>
      </trkpt>
      <trkpt lat="59.9525511" lon="17.7182687">
        <ele>54.4518</ele>
        <time>2014-06-25T19:15:26Z</time>
      </trkpt>
      <trkpt lat="59.9525456" lon="17.7183236">
        <ele>54.4518</ele>
        <time>2014-06-25T19:15:27Z</time>
      </trkpt>
      <trkpt lat="59.9525371" lon="17.7183827">
        <ele>54.9324</ele>
        <time>2014-06-25T19:15:28Z</time>
      </trkpt>
      <trkpt lat="59.9525284" lon="17.7184393">
        <ele>54.9324</ele>
        <time>2014-06-25T19:15:29Z</time>
      </trkpt>
      <trkpt lat="59.9525196" lon="17.7185034">
        <ele>55.4131</ele>
        <time>2014-06-25T19:15:30Z</time>
      </trkpt>
      <trkpt lat="59.9525078" lon="17.7185695">
        <ele>55.8938</ele>
        <time>2014-06-25T19:15:31Z</time>
      </trkpt>
      <trkpt lat="59.9524985" lon="17.7186152">
        <ele>54.9324</ele>
        <time>2014-06-25T19:15:32Z</time>
      </trkpt>
      <trkpt lat="59.9524864" lon="17.7186617">
        <ele>55.4131</ele>
        <time>2014-06-25T19:15:33Z</time>
      </trkpt>
      <trkpt lat="59.9524776" lon="17.7187059">
        <ele>55.8938</ele>
        <time>2014-06-25T19:15:34Z</time>
      </trkpt>
      <trkpt lat="59.9524663" lon="17.718766">
        <ele>56.8551</ele>
        <time>2014-06-25T19:15:35Z</time>
      </trkpt>
      <trkpt lat="59.9524536" lon="17.7188342">
        <ele>57.8165</ele>
        <time>2014-06-25T19:15:36Z</time>
      </trkpt>
      <trkpt lat="59.952445" lon="17.7189041">
        <ele>58.7777</ele>
        <time>2014-06-25T19:15:37Z</time>
      </trkpt>
      <trkpt lat="59.9524361" lon="17.7189577">
        <ele>59.2584</ele>
        <time>2014-06-25T19:15:38Z</time>
      </trkpt>
      <trkpt lat="59.9524289" lon="17.7190259">
        <ele>60.2197</ele>
        <time>2014-06-25T19:15:39Z</time>
      </trkpt>
      <trkpt lat="59.9524217" lon="17.7190939">
        <ele>60.7003</ele>
        <time>2014-06-25T19:15:40Z</time>
      </trkpt>
      <trkpt lat="59.9524094" lon="17.7191441">
        <ele>60.2197</ele>
        <time>2014-06-25T19:15:41Z</time>
      </trkpt>
      <trkpt lat="59.9523921" lon="17.7192052">
        <ele>60.7003</ele>
        <time>2014-06-25T19:15:42Z</time>
      </trkpt>
      <trkpt lat="59.9523737" lon="17.7192561">
        <ele>61.181</ele>
        <time>2014-06-25T19:15:43Z</time>
      </trkpt>
      <trkpt lat="59.9523596" lon="17.7193142">
        <ele>61.6617</ele>
        <time>2014-06-25T19:15:44Z</time>
      </trkpt>
      <trkpt lat="59.9523519" lon="17.7193636">
        <ele>60.7003</ele>
        <time>2014-06-25T19:15:45Z</time>
      </trkpt>
      <trkpt lat="59.9523459" lon="17.7194107">
        <ele>60.2197</ele>
        <time>2014-06-25T19:15:46Z</time>
      </trkpt>
      <trkpt lat="59.95234" lon="17.7194437">
        <ele>58.7777</ele>
        <time>2014-06-25T19:15:47Z</time>
      </trkpt>
      <trkpt lat="59.9523383" lon="17.7194715">
        <ele>57.8165</ele>
        <time>2014-06-25T19:15:48Z</time>
      </trkpt>
      <trkpt lat="59.9523384" lon="17.7195205">
        <ele>57.8165</ele>
        <time>2014-06-25T19:15:49Z</time>
      </trkpt>
      <trkpt lat="59.9523392" lon="17.7195745">
        <ele>58.2971</ele>
        <time>2014-06-25T19:15:50Z</time>
      </trkpt>
      <trkpt lat="59.9523461" lon="17.7196312">
        <ele>58.7777</ele>
        <time>2014-06-25T19:15:51Z</time>
      </trkpt>
      <trkpt lat="59.952355" lon="17.7196729">
        <ele>58.2971</ele>
        <time>2014-06-25T19:15:52Z</time>
      </trkpt>
      <trkpt lat="59.9523695" lon="17.7197084">
        <ele>58.7777</ele>
        <time>2014-06-25T19:15:53Z</time>
      </trkpt>
      <trkpt lat="59.9523835" lon="17.7197338">
        <ele>56.8551</ele>
        <time>2014-06-25T19:15:54Z</time>
      </trkpt>
      <trkpt lat="59.9523979" lon="17.7197694">
        <ele>56.3745</ele>
        <time>2014-06-25T19:15:55Z</time>
      </trkpt>
      <trkpt lat="59.9524143" lon="17.7198163">
        <ele>56.8551</ele>
        <time>2014-06-25T19:15:56Z</time>
      </trkpt>
      <trkpt lat="59.9524264" lon="17.7198536">
        <ele>55.8938</ele>
        <time>2014-06-25T19:15:57Z</time>
      </trkpt>
      <trkpt lat="59.9524405" lon="17.7198932">
        <ele>54.9324</ele>
        <time>2014-06-25T19:15:58Z</time>
      </trkpt>
      <trkpt lat="59.9524474" lon="17.7199287">
        <ele>53.9712</ele>
        <time>2014-06-25T19:15:59Z</time>
      </trkpt>
      <trkpt lat="59.9524564" lon="17.7199665">
        <ele>53.4905</ele>
        <time>2014-06-25T19:16:00Z</time>
      </trkpt>
      <trkpt lat="59.952471" lon="17.7200109">
        <ele>53.9712</ele>
        <time>2014-06-25T19:16:01Z</time>
      </trkpt>
      <trkpt lat="59.9524828" lon="17.7200686">
        <ele>53.9712</ele>
        <time>2014-06-25T19:16:02Z</time>
      </trkpt>
      <trkpt lat="59.9524936" lon="17.7201285">
        <ele>54.4518</ele>
        <time>2014-06-25T19:16:03Z</time>
      </trkpt>
      <trkpt lat="59.9525011" lon="17.720195">
        <ele>55.4131</ele>
        <time>2014-06-25T19:16:04Z</time>
      </trkpt>
      <trkpt lat="59.9525051" lon="17.7202561">
        <ele>55.8938</ele>
        <time>2014-06-25T19:16:05Z</time>
      </trkpt>
      <trkpt lat="59.9525077" lon="17.7203195">
        <ele>56.8551</ele>
        <time>2014-06-25T19:16:06Z</time>
      </trkpt>
      <trkpt lat="59.9525077" lon="17.7203721">
        <ele>55.8938</ele>
        <time>2014-06-25T19:16:07Z</time>
      </trkpt>
      <trkpt lat="59.9525071" lon="17.7204309">
        <ele>55.8938</ele>
        <time>2014-06-25T19:16:08Z</time>
      </trkpt>
      <trkpt lat="59.9525086" lon="17.7204871">
        <ele>55.8938</ele>
        <time>2014-06-25T19:16:09Z</time>
      </trkpt>
      <trkpt lat="59.9525123" lon="17.7205318">
        <ele>55.8938</ele>
        <time>2014-06-25T19:16:10Z</time>
      </trkpt>
      <trkpt lat="59.9525109" lon="17.7205737">
        <ele>55.4131</ele>
        <time>2014-06-25T19:16:11Z</time>
      </trkpt>
      <trkpt lat="59.9525092" lon="17.7206221">
        <ele>55.8938</ele>
        <time>2014-06-25T19:16:12Z</time>
      </trkpt>
      <trkpt lat="59.9525114" lon="17.7206605">
        <ele>55.4131</ele>
        <time>2014-06-25T19:16:13Z</time>
      </trkpt>
      <trkpt lat="59.9525122" lon="17.7207008">
        <ele>54.9324</ele>
        <time>2014-06-25T19:16:14Z</time>
      </trkpt>
      <trkpt lat="59.9525137" lon="17.7207501">
        <ele>55.8938</ele>
        <time>2014-06-25T19:16:15Z</time>
      </trkpt>
      <trkpt lat="59.9525169" lon="17.7208026">
        <ele>56.8551</ele>
        <time>2014-06-25T19:16:16Z</time>
      </trkpt>
      <trkpt lat="59.9525155" lon="17.7208606">
        <ele>57.3358</ele>
        <time>2014-06-25T19:16:17Z</time>
      </trkpt>
      <trkpt lat="59.9525119" lon="17.7209096">
        <ele>56.8551</ele>
        <time>2014-06-25T19:16:18Z</time>
      </trkpt>
      <trkpt lat="59.9525124" lon="17.720971">
        <ele>56.8551</ele>
        <time>2014-06-25T19:16:19Z</time>
      </trkpt>
      <trkpt lat="59.9525123" lon="17.721035">
        <ele>57.3358</ele>
        <time>2014-06-25T19:16:20Z</time>
      </trkpt>
      <trkpt lat="59.9525159" lon="17.721094">
        <ele>56.8551</ele>
        <time>2014-06-25T19:16:21Z</time>
      </trkpt>
      <trkpt lat="59.9525134" lon="17.7211495">
        <ele>56.3745</ele>
        <time>2014-06-25T19:16:22Z</time>
      </trkpt>
      <trkpt lat="59.9525124" lon="17.7212298">
        <ele>58.2971</ele>
        <time>2014-06-25T19:16:23Z</time>
      </trkpt>
      <trkpt lat="59.9525102" lon="17.7213067">
        <ele>60.7003</ele>
        <time>2014-06-25T19:16:24Z</time>
      </trkpt>
      <trkpt lat="59.9525015" lon="17.7213845">
        <ele>63.1036</ele>
        <time>2014-06-25T19:16:25Z</time>
      </trkpt>
      <trkpt lat="59.9524959" lon="17.7214558">
        <ele>64.5457</ele>
        <time>2014-06-25T19:16:26Z</time>
      </trkpt>
      <trkpt lat="59.9524897" lon="17.7215138">
        <ele>64.5457</ele>
        <time>2014-06-25T19:16:27Z</time>
      </trkpt>
      <trkpt lat="59.9524849" lon="17.7215727">
        <ele>64.5457</ele>
        <time>2014-06-25T19:16:28Z</time>
      </trkpt>
      <trkpt lat="59.9524814" lon="17.7216191">
        <ele>64.5457</ele>
        <time>2014-06-25T19:16:29Z</time>
      </trkpt>
      <trkpt lat="59.9524782" lon="17.7216684">
        <ele>65.0264</ele>
        <time>2014-06-25T19:16:30Z</time>
      </trkpt>
      <trkpt lat="59.9524802" lon="17.7217103">
        <ele>64.5457</ele>
        <time>2014-06-25T19:16:31Z</time>
      </trkpt>
      <trkpt lat="59.9524829" lon="17.7217444">
        <ele>64.0651</ele>
        <time>2014-06-25T19:16:32Z</time>
      </trkpt>
      <trkpt lat="59.9524869" lon="17.7217739">
        <ele>63.1036</ele>
        <time>2014-06-25T19:16:33Z</time>
      </trkpt>
      <trkpt lat="59.9524906" lon="17.7217993">
        <ele>61.6617</ele>
        <time>2014-06-25T19:16:34Z</time>
      </trkpt>
      <trkpt lat="59.9524974" lon="17.7218357">
        <ele>60.2197</ele>
        <time>2014-06-25T19:16:35Z</time>
      </trkpt>
      <trkpt lat="59.9525031" lon="17.721878">
        <ele>60.2197</ele>
        <time>2014-06-25T19:16:36Z</time>
      </trkpt>
      <trkpt lat="59.9525077" lon="17.721921">
        <ele>59.2584</ele>
        <time>2014-06-25T19:16:37Z</time>
      </trkpt>
      <trkpt lat="59.9525138" lon="17.7219723">
        <ele>59.7391</ele>
        <time>2014-06-25T19:16:38Z</time>
      </trkpt>
      <trkpt lat="59.9525241" lon="17.7220308">
        <ele>60.2197</ele>
        <time>2014-06-25T19:16:39Z</time>
      </trkpt>
      <trkpt lat="59.9525256" lon="17.72208">
        <ele>60.2197</ele>
        <time>2014-06-25T19:16:40Z</time>
      </trkpt>
      <trkpt lat="59.9525205" lon="17.7221222">
        <ele>59.7391</ele>
        <time>2014-06-25T19:16:41Z</time>
      </trkpt>
      <trkpt lat="59.952521" lon="17.7221645">
        <ele>58.7777</ele>
        <time>2014-06-25T19:16:42Z</time>
      </trkpt>
      <trkpt lat="59.9525227" lon="17.7222207">
        <ele>59.7391</ele>
        <time>2014-06-25T19:16:43Z</time>
      </trkpt>
      <trkpt lat="59.9525182" lon="17.7222657">
        <ele>59.2584</ele>
        <time>2014-06-25T19:16:44Z</time>
      </trkpt>
      <trkpt lat="59.9525067" lon="17.722306">
        <ele>58.2971</ele>
        <time>2014-06-25T19:16:45Z</time>
      </trkpt>
      <trkpt lat="59.9524994" lon="17.7223512">
        <ele>57.8165</ele>
        <time>2014-06-25T19:16:46Z</time>
      </trkpt>
      <trkpt lat="59.9524913" lon="17.7223932">
        <ele>57.3358</ele>
        <time>2014-06-25T19:16:47Z</time>
      </trkpt>
      <trkpt lat="59.9524792" lon="17.7224339">
        <ele>57.3358</ele>
        <time>2014-06-25T19:16:48Z</time>
      </trkpt>
      <trkpt lat="59.9524678" lon="17.7224738">
        <ele>55.8938</ele>
        <time>2014-06-25T19:16:49Z</time>
      </trkpt>
      <trkpt lat="59.9524542" lon="17.7225141">
        <ele>54.9324</ele>
        <time>2014-06-25T19:16:50Z</time>
      </trkpt>
      <trkpt lat="59.952444" lon="17.7225607">
        <ele>53.9712</ele>
        <time>2014-06-25T19:16:51Z</time>
      </trkpt>
      <trkpt lat="59.9524384" lon="17.7226076">
        <ele>53.0098</ele>
        <time>2014-06-25T19:16:52Z</time>
      </trkpt>
      <trkpt lat="59.9524304" lon="17.7226521">
        <ele>52.5292</ele>
        <time>2014-06-25T19:16:53Z</time>
      </trkpt>
      <trkpt lat="59.9524259" lon="17.722703">
        <ele>52.5292</ele>
        <time>2014-06-25T19:16:54Z</time>
      </trkpt>
      <trkpt lat="59.9524242" lon="17.7227566">
        <ele>52.5292</ele>
        <time>2014-06-25T19:16:55Z</time>
      </trkpt>
      <trkpt lat="59.9524239" lon="17.7228065">
        <ele>52.5292</ele>
        <time>2014-06-25T19:16:56Z</time>
      </trkpt>
      <trkpt lat="59.9524269" lon="17.7228511">
        <ele>52.0486</ele>
        <time>2014-06-25T19:16:57Z</time>
      </trkpt>
      <trkpt lat="59.9524326" lon="17.7229122">
        <ele>52.5292</ele>
        <time>2014-06-25T19:16:58Z</time>
      </trkpt>
      <trkpt lat="59.9524424" lon="17.7229707">
        <ele>52.0486</ele>
        <time>2014-06-25T19:16:59Z</time>
      </trkpt>
      <trkpt lat="59.952454" lon="17.7230255">
        <ele>52.0486</ele>
        <time>2014-06-25T19:17:00Z</time>
      </trkpt>
      <trkpt lat="59.9524669" lon="17.7230841">
        <ele>53.0098</ele>
        <time>2014-06-25T19:17:01Z</time>
      </trkpt>
      <trkpt lat="59.9524782" lon="17.7231354">
        <ele>53.4905</ele>
        <time>2014-06-25T19:17:02Z</time>
      </trkpt>
      <trkpt lat="59.9524829" lon="17.7231858">
        <ele>53.4905</ele>
        <time>2014-06-25T19:17:03Z</time>
      </trkpt>
      <trkpt lat="59.9524932" lon="17.7232391">
        <ele>53.9712</ele>
        <time>2014-06-25T19:17:04Z</time>
      </trkpt>
      <trkpt lat="59.9525072" lon="17.7232828">
        <ele>53.4905</ele>
        <time>2014-06-25T19:17:05Z</time>
      </trkpt>
      <trkpt lat="59.9525202" lon="17.7233353">
        <ele>53.9712</ele>
        <time>2014-06-25T19:17:06Z</time>
      </trkpt>
      <trkpt lat="59.952531" lon="17.7233961">
        <ele>54.9324</ele>
        <time>2014-06-25T19:17:07Z</time>
      </trkpt>
      <trkpt lat="59.952542" lon="17.7234465">
        <ele>55.8938</ele>
        <time>2014-06-25T19:17:08Z</time>
      </trkpt>
      <trkpt lat="59.952557" lon="17.7234987">
        <ele>56.3745</ele>
        <time>2014-06-25T19:17:09Z</time>
      </trkpt>
      <trkpt lat="59.952571" lon="17.723546">
        <ele>56.8551</ele>
        <time>2014-06-25T19:17:10Z</time>
      </trkpt>
      <trkpt lat="59.9525848" lon="17.7235791">
        <ele>55.8938</ele>
        <time>2014-06-25T19:17:11Z</time>
      </trkpt>
      <trkpt lat="59.9525992" lon="17.7236192">
        <ele>55.4131</ele>
        <time>2014-06-25T19:17:12Z</time>
      </trkpt>
      <trkpt lat="59.9526106" lon="17.7236613">
        <ele>55.4131</ele>
        <time>2014-06-25T19:17:13Z</time>
      </trkpt>
      <trkpt lat="59.9526258" lon="17.7236989">
        <ele>55.4131</ele>
        <time>2014-06-25T19:17:14Z</time>
      </trkpt>
      <trkpt lat="59.9526321" lon="17.7237356">
        <ele>54.4518</ele>
        <time>2014-06-25T19:17:15Z</time>
      </trkpt>
      <trkpt lat="59.952636" lon="17.7237807">
        <ele>53.9712</ele>
        <time>2014-06-25T19:17:16Z</time>
      </trkpt>
      <trkpt lat="59.9526536" lon="17.7238306">
        <ele>54.4518</ele>
        <time>2014-06-25T19:17:17Z</time>
      </trkpt>
      <trkpt lat="59.9526647" lon="17.7238906">
        <ele>54.9324</ele>
        <time>2014-06-25T19:17:18Z</time>
      </trkpt>
      <trkpt lat="59.9526688" lon="17.7239445">
        <ele>54.4518</ele>
        <time>2014-06-25T19:17:19Z</time>
      </trkpt>
      <trkpt lat="59.9526632" lon="17.7239984">
        <ele>53.9712</ele>
        <time>2014-06-25T19:17:20Z</time>
      </trkpt>
      <trkpt lat="59.9526554" lon="17.7240482">
        <ele>53.4905</ele>
        <time>2014-06-25T19:17:21Z</time>
      </trkpt>
      <trkpt lat="59.9526432" lon="17.7240987">
        <ele>53.4905</ele>
        <time>2014-06-25T19:17:22Z</time>
      </trkpt>
      <trkpt lat="59.9526268" lon="17.7241386">
        <ele>52.0486</ele>
        <time>2014-06-25T19:17:23Z</time>
      </trkpt>
      <trkpt lat="59.9526164" lon="17.7241868">
        <ele>51.0872</ele>
        <time>2014-06-25T19:17:24Z</time>
      </trkpt>
      <trkpt lat="59.9526067" lon="17.724232">
        <ele>50.126</ele>
        <time>2014-06-25T19:17:25Z</time>
      </trkpt>
      <trkpt lat="59.9525972" lon="17.724288">
        <ele>50.126</ele>
        <time>2014-06-25T19:17:26Z</time>
      </trkpt>
      <trkpt lat="59.9525865" lon="17.7243287">
        <ele>49.1646</ele>
        <time>2014-06-25T19:17:27Z</time>
      </trkpt>
      <trkpt lat="59.95257" lon="17.7243719">
        <ele>48.684</ele>
        <time>2014-06-25T19:17:28Z</time>
      </trkpt>
      <trkpt lat="59.9525527" lon="17.724407">
        <ele>48.2034</ele>
        <time>2014-06-25T19:17:29Z</time>
      </trkpt>
      <trkpt lat="59.9525388" lon="17.7244456">
        <ele>47.7225</ele>
        <time>2014-06-25T19:17:30Z</time>
      </trkpt>
      <trkpt lat="59.9525222" lon="17.7244857">
        <ele>47.2418</ele>
        <time>2014-06-25T19:17:31Z</time>
      </trkpt>
      <trkpt lat="59.952506" lon="17.7245261">
        <ele>46.7612</ele>
        <time>2014-06-25T19:17:32Z</time>
      </trkpt>
      <trkpt lat="59.9524906" lon="17.7245651">
        <ele>46.7612</ele>
        <time>2014-06-25T19:17:33Z</time>
      </trkpt>
      <trkpt lat="59.9524715" lon="17.7245998">
        <ele>46.2806</ele>
        <time>2014-06-25T19:17:34Z</time>
      </trkpt>
      <trkpt lat="59.9524507" lon="17.7246345">
        <ele>46.2806</ele>
        <time>2014-06-25T19:17:35Z</time>
      </trkpt>
      <trkpt lat="59.9524316" lon="17.7246672">
        <ele>45.3192</ele>
        <time>2014-06-25T19:17:36Z</time>
      </trkpt>
      <trkpt lat="59.9524093" lon="17.7246888">
        <ele>44.358</ele>
        <time>2014-06-25T19:17:37Z</time>
      </trkpt>
      <trkpt lat="59.9523882" lon="17.7247265">
        <ele>44.8386</ele>
        <time>2014-06-25T19:17:38Z</time>
      </trkpt>
      <trkpt lat="59.9523643" lon="17.7247602">
        <ele>44.8386</ele>
        <time>2014-06-25T19:17:39Z</time>
      </trkpt>
      <trkpt lat="59.9523417" lon="17.7247909">
        <ele>44.8386</ele>
        <time>2014-06-25T19:17:40Z</time>
      </trkpt>
      <trkpt lat="59.9523254" lon="17.7248179">
        <ele>44.358</ele>
        <time>2014-06-25T19:17:41Z</time>
      </trkpt>
      <trkpt lat="59.95231" lon="17.7248495">
        <ele>43.8773</ele>
        <time>2014-06-25T19:17:42Z</time>
      </trkpt>
      <trkpt lat="59.9522922" lon="17.7248846">
        <ele>44.358</ele>
        <time>2014-06-25T19:17:43Z</time>
      </trkpt>
      <trkpt lat="59.9522777" lon="17.7249146">
        <ele>43.8773</ele>
        <time>2014-06-25T19:17:44Z</time>
      </trkpt>
      <trkpt lat="59.9522575" lon="17.7249489">
        <ele>44.358</ele>
        <time>2014-06-25T19:17:45Z</time>
      </trkpt>
      <trkpt lat="59.952239" lon="17.7249893">
        <ele>44.358</ele>
        <time>2014-06-25T19:17:46Z</time>
      </trkpt>
      <trkpt lat="59.9522183" lon="17.7250223">
        <ele>43.8773</ele>
        <time>2014-06-25T19:17:47Z</time>
      </trkpt>
      <trkpt lat="59.9522004" lon="17.7250546">
        <ele>43.3966</ele>
        <time>2014-06-25T19:17:48Z</time>
      </trkpt>
      <trkpt lat="59.9521926" lon="17.7250988">
        <ele>43.3966</ele>
        <time>2014-06-25T19:17:49Z</time>
      </trkpt>
      <trkpt lat="59.952184" lon="17.7251432">
        <ele>43.3966</ele>
        <time>2014-06-25T19:17:50Z</time>
      </trkpt>
      <trkpt lat="59.9521659" lon="17.7251814">
        <ele>43.3966</ele>
        <time>2014-06-25T19:17:51Z</time>
      </trkpt>
      <trkpt lat="59.952144" lon="17.7252138">
        <ele>42.916</ele>
        <time>2014-06-25T19:17:52Z</time>
      </trkpt>
      <trkpt lat="59.9521254" lon="17.7252489">
        <ele>43.3966</ele>
        <time>2014-06-25T19:17:53Z</time>
      </trkpt>
      <trkpt lat="59.9521073" lon="17.7252913">
        <ele>44.358</ele>
        <time>2014-06-25T19:17:54Z</time>
      </trkpt>
      <trkpt lat="59.9520895" lon="17.7253248">
        <ele>44.358</ele>
        <time>2014-06-25T19:17:55Z</time>
      </trkpt>
      <trkpt lat="59.9520717" lon="17.725359">
        <ele>44.358</ele>
        <time>2014-06-25T19:17:56Z</time>
      </trkpt>
      <trkpt lat="59.9520548" lon="17.7254022">
        <ele>44.358</ele>
        <time>2014-06-25T19:17:57Z</time>
      </trkpt>
      <trkpt lat="59.9520385" lon="17.7254455">
        <ele>44.358</ele>
        <time>2014-06-25T19:17:58Z</time>
      </trkpt>
      <trkpt lat="59.9520223" lon="17.7254836">
        <ele>44.358</ele>
        <time>2014-06-25T19:17:59Z</time>
      </trkpt>
      <trkpt lat="59.9520051" lon="17.7255168">
        <ele>43.8773</ele>
        <time>2014-06-25T19:18:00Z</time>
      </trkpt>
      <trkpt lat="59.9519883" lon="17.7255531">
        <ele>44.358</ele>
        <time>2014-06-25T19:18:01Z</time>
      </trkpt>
      <trkpt lat="59.9519667" lon="17.7255873">
        <ele>43.8773</ele>
        <time>2014-06-25T19:18:02Z</time>
      </trkpt>
      <trkpt lat="59.9519458" lon="17.7256168">
        <ele>44.358</ele>
        <time>2014-06-25T19:18:03Z</time>
      </trkpt>
      <trkpt lat="59.9519305" lon="17.7256486">
        <ele>44.358</ele>
        <time>2014-06-25T19:18:04Z</time>
      </trkpt>
      <trkpt lat="59.9519072" lon="17.7256829">
        <ele>45.3192</ele>
        <time>2014-06-25T19:18:05Z</time>
      </trkpt>
      <trkpt lat="59.9518782" lon="17.7257128">
        <ele>45.7999</ele>
        <time>2014-06-25T19:18:06Z</time>
      </trkpt>
      <trkpt lat="59.9518566" lon="17.7257513">
        <ele>46.7612</ele>
        <time>2014-06-25T19:18:07Z</time>
      </trkpt>
      <trkpt lat="59.9518351" lon="17.7257859">
        <ele>47.2418</ele>
        <time>2014-06-25T19:18:08Z</time>
      </trkpt>
      <trkpt lat="59.9518124" lon="17.7258105">
        <ele>47.7225</ele>
        <time>2014-06-25T19:18:09Z</time>
      </trkpt>
      <trkpt lat="59.9517901" lon="17.7258327">
        <ele>47.7225</ele>
        <time>2014-06-25T19:18:10Z</time>
      </trkpt>
      <trkpt lat="59.9517691" lon="17.7258546">
        <ele>47.7225</ele>
        <time>2014-06-25T19:18:11Z</time>
      </trkpt>
      <trkpt lat="59.9517499" lon="17.7258779">
        <ele>48.2034</ele>
        <time>2014-06-25T19:18:12Z</time>
      </trkpt>
      <trkpt lat="59.9517327" lon="17.7259006">
        <ele>49.1646</ele>
        <time>2014-06-25T19:18:13Z</time>
      </trkpt>
      <trkpt lat="59.9517114" lon="17.7259213">
        <ele>49.1646</ele>
        <time>2014-06-25T19:18:14Z</time>
      </trkpt>
      <trkpt lat="59.9516928" lon="17.7259555">
        <ele>49.6453</ele>
        <time>2014-06-25T19:18:15Z</time>
      </trkpt>
      <trkpt lat="59.9516769" lon="17.7259917">
        <ele>49.1646</ele>
        <time>2014-06-25T19:18:16Z</time>
      </trkpt>
      <trkpt lat="59.9516614" lon="17.7260312">
        <ele>49.1646</ele>
        <time>2014-06-25T19:18:17Z</time>
      </trkpt>
      <trkpt lat="59.9516468" lon="17.7260688">
        <ele>48.684</ele>
        <time>2014-06-25T19:18:18Z</time>
      </trkpt>
      <trkpt lat="59.9516324" lon="17.7261066">
        <ele>48.2034</ele>
        <time>2014-06-25T19:18:19Z</time>
      </trkpt>
      <trkpt lat="59.9516193" lon="17.7261496">
        <ele>48.684</ele>
        <time>2014-06-25T19:18:20Z</time>
      </trkpt>
      <trkpt lat="59.9516043" lon="17.7261845">
        <ele>48.684</ele>
        <time>2014-06-25T19:18:21Z</time>
      </trkpt>
      <trkpt lat="59.9515862" lon="17.7262176">
        <ele>48.684</ele>
        <time>2014-06-25T19:18:22Z</time>
      </trkpt>
      <trkpt lat="59.951572" lon="17.7262544">
        <ele>49.1646</ele>
        <time>2014-06-25T19:18:23Z</time>
      </trkpt>
      <trkpt lat="59.951563" lon="17.7262824">
        <ele>48.684</ele>
        <time>2014-06-25T19:18:24Z</time>
      </trkpt>
      <trkpt lat="59.951551" lon="17.7263174">
        <ele>48.684</ele>
        <time>2014-06-25T19:18:25Z</time>
      </trkpt>
      <trkpt lat="59.9515379" lon="17.7263543">
        <ele>48.684</ele>
        <time>2014-06-25T19:18:26Z</time>
      </trkpt>
      <trkpt lat="59.9515251" lon="17.7264008">
        <ele>49.1646</ele>
        <time>2014-06-25T19:18:27Z</time>
      </trkpt>
      <trkpt lat="59.9515106" lon="17.7264403">
        <ele>49.1646</ele>
        <time>2014-06-25T19:18:28Z</time>
      </trkpt>
      <trkpt lat="59.9514902" lon="17.7264738">
        <ele>49.1646</ele>
        <time>2014-06-25T19:18:29Z</time>
      </trkpt>
      <trkpt lat="59.9514701" lon="17.72651">
        <ele>49.1646</ele>
        <time>2014-06-25T19:18:30Z</time>
      </trkpt>
      <trkpt lat="59.9514556" lon="17.72655">
        <ele>48.684</ele>
        <time>2014-06-25T19:18:31Z</time>
      </trkpt>
      <trkpt lat="59.9514458" lon="17.726588">
        <ele>48.2034</ele>
        <time>2014-06-25T19:18:32Z</time>
      </trkpt>
      <trkpt lat="59.9514368" lon="17.7266228">
        <ele>47.7225</ele>
        <time>2014-06-25T19:18:33Z</time>
      </trkpt>
      <trkpt lat="59.9514291" lon="17.7266704">
        <ele>48.2034</ele>
        <time>2014-06-25T19:18:34Z</time>
      </trkpt>
      <trkpt lat="59.9514269" lon="17.7267204">
        <ele>47.7225</ele>
        <time>2014-06-25T19:18:35Z</time>
      </trkpt>
      <trkpt lat="59.9514313" lon="17.7267722">
        <ele>47.7225</ele>
        <time>2014-06-25T19:18:36Z</time>
      </trkpt>
      <trkpt lat="59.9514368" lon="17.7268278">
        <ele>47.7225</ele>
        <time>2014-06-25T19:18:37Z</time>
      </trkpt>
      <trkpt lat="59.9514426" lon="17.72688">
        <ele>48.2034</ele>
        <time>2014-06-25T19:18:38Z</time>
      </trkpt>
      <trkpt lat="59.9514494" lon="17.7269283">
        <ele>48.684</ele>
        <time>2014-06-25T19:18:39Z</time>
      </trkpt>
      <trkpt lat="59.9514585" lon="17.7269766">
        <ele>48.684</ele>
        <time>2014-06-25T19:18:40Z</time>
      </trkpt>
      <trkpt lat="59.9514588" lon="17.7270149">
        <ele>48.2034</ele>
        <time>2014-06-25T19:18:41Z</time>
      </trkpt>
      <trkpt lat="59.9514567" lon="17.727055">
        <ele>48.2034</ele>
        <time>2014-06-25T19:18:42Z</time>
      </trkpt>
      <trkpt lat="59.9514608" lon="17.7270975">
        <ele>47.7225</ele>
        <time>2014-06-25T19:18:43Z</time>
      </trkpt>
      <trkpt lat="59.9514639" lon="17.7271464">
        <ele>47.7225</ele>
        <time>2014-06-25T19:18:44Z</time>
      </trkpt>
      <trkpt lat="59.9514658" lon="17.7271952">
        <ele>48.2034</ele>
        <time>2014-06-25T19:18:45Z</time>
      </trkpt>
      <trkpt lat="59.9514721" lon="17.7272432">
        <ele>48.2034</ele>
        <time>2014-06-25T19:18:46Z</time>
      </trkpt>
      <trkpt lat="59.9514743" lon="17.7272962">
        <ele>48.2034</ele>
        <time>2014-06-25T19:18:47Z</time>
      </trkpt>
      <trkpt lat="59.9514738" lon="17.7273468">
        <ele>48.2034</ele>
        <time>2014-06-25T19:18:48Z</time>
      </trkpt>
      <trkpt lat="59.9514727" lon="17.7273985">
        <ele>47.7225</ele>
        <time>2014-06-25T19:18:49Z</time>
      </trkpt>
      <trkpt lat="59.9514756" lon="17.7274655">
        <ele>47.7225</ele>
        <time>2014-06-25T19:18:50Z</time>
      </trkpt>
      <trkpt lat="59.9514811" lon="17.7275248">
        <ele>48.2034</ele>
        <time>2014-06-25T19:18:51Z</time>
      </trkpt>
      <trkpt lat="59.9514883" lon="17.7275732">
        <ele>47.7225</ele>
        <time>2014-06-25T19:18:52Z</time>
      </trkpt>
      <trkpt lat="59.951496" lon="17.7276241">
        <ele>47.7225</ele>
        <time>2014-06-25T19:18:53Z</time>
      </trkpt>
      <trkpt lat="59.9515099" lon="17.727669">
        <ele>47.2418</ele>
        <time>2014-06-25T19:18:54Z</time>
      </trkpt>
      <trkpt lat="59.9515243" lon="17.7277087">
        <ele>46.7612</ele>
        <time>2014-06-25T19:18:55Z</time>
      </trkpt>
      <trkpt lat="59.9515402" lon="17.7277481">
        <ele>46.7612</ele>
        <time>2014-06-25T19:18:56Z</time>
      </trkpt>
      <trkpt lat="59.9515576" lon="17.7277763">
        <ele>46.2806</ele>
        <time>2014-06-25T19:18:57Z</time>
      </trkpt>
      <trkpt lat="59.9515808" lon="17.7278042">
        <ele>46.2806</ele>
        <time>2014-06-25T19:18:58Z</time>
      </trkpt>
      <trkpt lat="59.9516022" lon="17.7278251">
        <ele>45.7999</ele>
        <time>2014-06-25T19:18:59Z</time>
      </trkpt>
      <trkpt lat="59.9516253" lon="17.7278458">
        <ele>45.7999</ele>
        <time>2014-06-25T19:19:00Z</time>
      </trkpt>
      <trkpt lat="59.9516549" lon="17.7278636">
        <ele>46.7612</ele>
        <time>2014-06-25T19:19:01Z</time>
      </trkpt>
      <trkpt lat="59.9516885" lon="17.7278803">
        <ele>47.2418</ele>
        <time>2014-06-25T19:19:02Z</time>
      </trkpt>
      <trkpt lat="59.9517168" lon="17.7278817">
        <ele>46.2806</ele>
        <time>2014-06-25T19:19:03Z</time>
      </trkpt>
      <trkpt lat="59.9517455" lon="17.7278845">
        <ele>46.2806</ele>
        <time>2014-06-25T19:19:04Z</time>
      </trkpt>
      <trkpt lat="59.9517723" lon="17.7278798">
        <ele>45.7999</ele>
        <time>2014-06-25T19:19:05Z</time>
      </trkpt>
      <trkpt lat="59.9517963" lon="17.7278731">
        <ele>45.7999</ele>
        <time>2014-06-25T19:19:06Z</time>
      </trkpt>
      <trkpt lat="59.9518168" lon="17.72786">
        <ele>45.7999</ele>
        <time>2014-06-25T19:19:07Z</time>
      </trkpt>
      <trkpt lat="59.9518427" lon="17.7278415">
        <ele>45.7999</ele>
        <time>2014-06-25T19:19:08Z</time>
      </trkpt>
      <trkpt lat="59.951868" lon="17.7278238">
        <ele>46.7612</ele>
        <time>2014-06-25T19:19:09Z</time>
      </trkpt>
      <trkpt lat="59.95189" lon="17.7277939">
        <ele>45.7999</ele>
        <time>2014-06-25T19:19:10Z</time>
      </trkpt>
      <trkpt lat="59.9519073" lon="17.727761">
        <ele>45.7999</ele>
        <time>2014-06-25T19:19:11Z</time>
      </trkpt>
      <trkpt lat="59.9519239" lon="17.7277264">
        <ele>45.3192</ele>
        <time>2014-06-25T19:19:12Z</time>
      </trkpt>
      <trkpt lat="59.9519463" lon="17.7276792">
        <ele>46.2806</ele>
        <time>2014-06-25T19:19:13Z</time>
      </trkpt>
      <trkpt lat="59.9519636" lon="17.7276319">
        <ele>46.7612</ele>
        <time>2014-06-25T19:19:14Z</time>
      </trkpt>
      <trkpt lat="59.9519798" lon="17.7275872">
        <ele>46.7612</ele>
        <time>2014-06-25T19:19:15Z</time>
      </trkpt>
      <trkpt lat="59.9520035" lon="17.7275421">
        <ele>47.7225</ele>
        <time>2014-06-25T19:19:16Z</time>
      </trkpt>
      <trkpt lat="59.9520213" lon="17.7274971">
        <ele>47.7225</ele>
        <time>2014-06-25T19:19:17Z</time>
      </trkpt>
      <trkpt lat="59.9520634" lon="17.7274648">
        <ele>48.684</ele>
        <time>2014-06-25T19:19:18Z</time>
      </trkpt>
      <trkpt lat="59.9521176" lon="17.7274317">
        <ele>49.6453</ele>
        <time>2014-06-25T19:19:19Z</time>
      </trkpt>
      <trkpt lat="59.952177" lon="17.7273987">
        <ele>50.126</ele>
        <time>2014-06-25T19:19:20Z</time>
      </trkpt>
      <trkpt lat="59.9521958" lon="17.727356">
        <ele>50.126</ele>
        <time>2014-06-25T19:19:21Z</time>
      </trkpt>
      <trkpt lat="59.9521716" lon="17.7272998">
        <ele>49.6453</ele>
        <time>2014-06-25T19:19:22Z</time>
      </trkpt>
      <trkpt lat="59.9521516" lon="17.7272469">
        <ele>49.6453</ele>
        <time>2014-06-25T19:19:23Z</time>
      </trkpt>
      <trkpt lat="59.9521331" lon="17.7271936">
        <ele>49.1646</ele>
        <time>2014-06-25T19:19:24Z</time>
      </trkpt>
      <trkpt lat="59.9521276" lon="17.7271431">
        <ele>48.684</ele>
        <time>2014-06-25T19:19:25Z</time>
      </trkpt>
      <trkpt lat="59.9521367" lon="17.7270795">
        <ele>48.684</ele>
        <time>2014-06-25T19:19:26Z</time>
      </trkpt>
      <trkpt lat="59.9521461" lon="17.72702">
        <ele>49.1646</ele>
        <time>2014-06-25T19:19:27Z</time>
      </trkpt>
      <trkpt lat="59.9521533" lon="17.7269704">
        <ele>48.684</ele>
        <time>2014-06-25T19:19:28Z</time>
      </trkpt>
      <trkpt lat="59.9521605" lon="17.7269189">
        <ele>48.684</ele>
        <time>2014-06-25T19:19:29Z</time>
      </trkpt>
      <trkpt lat="59.9521611" lon="17.7268687">
        <ele>48.2034</ele>
        <time>2014-06-25T19:19:30Z</time>
      </trkpt>
      <trkpt lat="59.9521715" lon="17.7268224">
        <ele>47.7225</ele>
        <time>2014-06-25T19:19:31Z</time>
      </trkpt>
      <trkpt lat="59.952176" lon="17.726781">
        <ele>48.2034</ele>
        <time>2014-06-25T19:19:32Z</time>
      </trkpt>
      <trkpt lat="59.9521898" lon="17.7267387">
        <ele>47.7225</ele>
        <time>2014-06-25T19:19:33Z</time>
      </trkpt>
      <trkpt lat="59.952199" lon="17.7266883">
        <ele>47.7225</ele>
        <time>2014-06-25T19:19:34Z</time>
      </trkpt>
      <trkpt lat="59.9522031" lon="17.7266414">
        <ele>47.2418</ele>
        <time>2014-06-25T19:19:35Z</time>
      </trkpt>
      <trkpt lat="59.9522108" lon="17.7265978">
        <ele>46.7612</ele>
        <time>2014-06-25T19:19:36Z</time>
      </trkpt>
      <trkpt lat="59.9522269" lon="17.726566">
        <ele>47.2418</ele>
        <time>2014-06-25T19:19:37Z</time>
      </trkpt>
      <trkpt lat="59.9522404" lon="17.7265344">
        <ele>46.7612</ele>
        <time>2014-06-25T19:19:38Z</time>
      </trkpt>
      <trkpt lat="59.9522674" lon="17.7264941">
        <ele>47.7225</ele>
        <time>2014-06-25T19:19:39Z</time>
      </trkpt>
      <trkpt lat="59.9522793" lon="17.7264508">
        <ele>47.2418</ele>
        <time>2014-06-25T19:19:40Z</time>
      </trkpt>
      <trkpt lat="59.9522863" lon="17.7264148">
        <ele>46.7612</ele>
        <time>2014-06-25T19:19:41Z</time>
      </trkpt>
      <trkpt lat="59.9522962" lon="17.7263798">
        <ele>46.7612</ele>
        <time>2014-06-25T19:19:42Z</time>
      </trkpt>
      <trkpt lat="59.9523047" lon="17.7263506">
        <ele>46.2806</ele>
        <time>2014-06-25T19:19:43Z</time>
      </trkpt>
      <trkpt lat="59.9523221" lon="17.7263134">
        <ele>45.7999</ele>
        <time>2014-06-25T19:19:44Z</time>
      </trkpt>
      <trkpt lat="59.9523372" lon="17.7262742">
        <ele>45.7999</ele>
        <time>2014-06-25T19:19:45Z</time>
      </trkpt>
      <trkpt lat="59.9523513" lon="17.7262357">
        <ele>45.3192</ele>
        <time>2014-06-25T19:19:46Z</time>
      </trkpt>
      <trkpt lat="59.9523716" lon="17.7261932">
        <ele>45.7999</ele>
        <time>2014-06-25T19:19:47Z</time>
      </trkpt>
      <trkpt lat="59.9523912" lon="17.7261543">
        <ele>45.7999</ele>
        <time>2014-06-25T19:19:48Z</time>
      </trkpt>
      <trkpt lat="59.9524067" lon="17.7261232">
        <ele>46.2806</ele>
        <time>2014-06-25T19:19:49Z</time>
      </trkpt>
      <trkpt lat="59.9524154" lon="17.7260803">
        <ele>46.2806</ele>
        <time>2014-06-25T19:19:50Z</time>
      </trkpt>
      <trkpt lat="59.9524211" lon="17.7260312">
        <ele>46.7612</ele>
        <time>2014-06-25T19:19:51Z</time>
      </trkpt>
      <trkpt lat="59.9524321" lon="17.7259762">
        <ele>45.7999</ele>
        <time>2014-06-25T19:19:52Z</time>
      </trkpt>
      <trkpt lat="59.9524505" lon="17.7259244">
        <ele>45.3192</ele>
        <time>2014-06-25T19:19:53Z</time>
      </trkpt>
      <trkpt lat="59.9524756" lon="17.7258845">
        <ele>44.8386</ele>
        <time>2014-06-25T19:19:54Z</time>
      </trkpt>
      <trkpt lat="59.9524926" lon="17.7258492">
        <ele>43.3966</ele>
        <time>2014-06-25T19:19:55Z</time>
      </trkpt>
      <trkpt lat="59.9525063" lon="17.7258104">
        <ele>41.9547</ele>
        <time>2014-06-25T19:19:56Z</time>
      </trkpt>
      <trkpt lat="59.9525175" lon="17.7257747">
        <ele>41.9547</ele>
        <time>2014-06-25T19:19:57Z</time>
      </trkpt>
      <trkpt lat="59.9525378" lon="17.7257509">
        <ele>41.9547</ele>
        <time>2014-06-25T19:19:58Z</time>
      </trkpt>
      <trkpt lat="59.9525497" lon="17.7257167">
        <ele>41.474</ele>
        <time>2014-06-25T19:19:59Z</time>
      </trkpt>
      <trkpt lat="59.9525678" lon="17.7256882">
        <ele>41.474</ele>
        <time>2014-06-25T19:20:00Z</time>
      </trkpt>
      <trkpt lat="59.9525883" lon="17.7256605">
        <ele>40.9934</ele>
        <time>2014-06-25T19:20:01Z</time>
      </trkpt>
      <trkpt lat="59.9526013" lon="17.7256327">
        <ele>40.0321</ele>
        <time>2014-06-25T19:20:02Z</time>
      </trkpt>
      <trkpt lat="59.95262" lon="17.7256043">
        <ele>40.0321</ele>
        <time>2014-06-25T19:20:03Z</time>
      </trkpt>
      <trkpt lat="59.9526341" lon="17.7255738">
        <ele>39.5513</ele>
        <time>2014-06-25T19:20:04Z</time>
      </trkpt>
      <trkpt lat="59.9526516" lon="17.7255425">
        <ele>39.5513</ele>
        <time>2014-06-25T19:20:05Z</time>
      </trkpt>
      <trkpt lat="59.9526712" lon="17.7255125">
        <ele>39.0707</ele>
        <time>2014-06-25T19:20:06Z</time>
      </trkpt>
      <trkpt lat="59.9526957" lon="17.725484">
        <ele>39.5513</ele>
        <time>2014-06-25T19:20:07Z</time>
      </trkpt>
      <trkpt lat="59.9527144" lon="17.725452">
        <ele>39.0707</ele>
        <time>2014-06-25T19:20:08Z</time>
      </trkpt>
      <trkpt lat="59.9527292" lon="17.7254105">
        <ele>38.5901</ele>
        <time>2014-06-25T19:20:09Z</time>
      </trkpt>
      <trkpt lat="59.9527491" lon="17.725371">
        <ele>38.5901</ele>
        <time>2014-06-25T19:20:10Z</time>
      </trkpt>
      <trkpt lat="59.9527682" lon="17.7253323">
        <ele>38.1094</ele>
        <time>2014-06-25T19:20:11Z</time>
      </trkpt>
      <trkpt lat="59.9527889" lon="17.725292">
        <ele>38.5901</ele>
        <time>2014-06-25T19:20:12Z</time>
      </trkpt>
      <trkpt lat="59.9528119" lon="17.7252435">
        <ele>39.0707</ele>
        <time>2014-06-25T19:20:13Z</time>
      </trkpt>
      <trkpt lat="59.9528387" lon="17.7252044">
        <ele>39.0707</ele>
        <time>2014-06-25T19:20:14Z</time>
      </trkpt>
      <trkpt lat="59.9528645" lon="17.7251751">
        <ele>39.0707</ele>
        <time>2014-06-25T19:20:15Z</time>
      </trkpt>
      <trkpt lat="59.9528812" lon="17.7251355">
        <ele>40.5128</ele>
        <time>2014-06-25T19:20:16Z</time>
      </trkpt>
      <trkpt lat="59.9528989" lon="17.7250925">
        <ele>40.9934</ele>
        <time>2014-06-25T19:20:17Z</time>
      </trkpt>
      <trkpt lat="59.9529132" lon="17.7250474">
        <ele>41.474</ele>
        <time>2014-06-25T19:20:18Z</time>
      </trkpt>
      <trkpt lat="59.9529262" lon="17.7250039">
        <ele>41.474</ele>
        <time>2014-06-25T19:20:19Z</time>
      </trkpt>
      <trkpt lat="59.9529448" lon="17.7249626">
        <ele>42.4354</ele>
        <time>2014-06-25T19:20:20Z</time>
      </trkpt>
      <trkpt lat="59.9529687" lon="17.7249296">
        <ele>43.3966</ele>
        <time>2014-06-25T19:20:21Z</time>
      </trkpt>
      <trkpt lat="59.952993" lon="17.7248929">
        <ele>43.8773</ele>
        <time>2014-06-25T19:20:22Z</time>
      </trkpt>
      <trkpt lat="59.9530132" lon="17.7248577">
        <ele>43.3966</ele>
        <time>2014-06-25T19:20:23Z</time>
      </trkpt>
      <trkpt lat="59.9530355" lon="17.724827">
        <ele>42.916</ele>
        <time>2014-06-25T19:20:24Z</time>
      </trkpt>
      <trkpt lat="59.9530585" lon="17.7247875">
        <ele>43.3966</ele>
        <time>2014-06-25T19:20:25Z</time>
      </trkpt>
      <trkpt lat="59.9530718" lon="17.7247562">
        <ele>42.4354</ele>
        <time>2014-06-25T19:20:26Z</time>
      </trkpt>
      <trkpt lat="59.9530915" lon="17.7247253">
        <ele>42.916</ele>
        <time>2014-06-25T19:20:27Z</time>
      </trkpt>
      <trkpt lat="59.9531108" lon="17.7246843">
        <ele>42.916</ele>
        <time>2014-06-25T19:20:28Z</time>
      </trkpt>
      <trkpt lat="59.953131" lon="17.7246454">
        <ele>42.916</ele>
        <time>2014-06-25T19:20:29Z</time>
      </trkpt>
      <trkpt lat="59.953149" lon="17.7246133">
        <ele>42.916</ele>
        <time>2014-06-25T19:20:30Z</time>
      </trkpt>
      <trkpt lat="59.9531667" lon="17.7245765">
        <ele>43.3966</ele>
        <time>2014-06-25T19:20:31Z</time>
      </trkpt>
      <trkpt lat="59.9531883" lon="17.7245357">
        <ele>44.358</ele>
        <time>2014-06-25T19:20:32Z</time>
      </trkpt>
      <trkpt lat="59.9532059" lon="17.7244995">
        <ele>45.3192</ele>
        <time>2014-06-25T19:20:33Z</time>
      </trkpt>
      <trkpt lat="59.9532256" lon="17.7244632">
        <ele>46.2806</ele>
        <time>2014-06-25T19:20:34Z</time>
      </trkpt>
      <trkpt lat="59.9532454" lon="17.7244329">
        <ele>46.7612</ele>
        <time>2014-06-25T19:20:35Z</time>
      </trkpt>
      <trkpt lat="59.9532644" lon="17.7244081">
        <ele>47.2418</ele>
        <time>2014-06-25T19:20:36Z</time>
      </trkpt>
      <trkpt lat="59.9532797" lon="17.7243832">
        <ele>47.7225</ele>
        <time>2014-06-25T19:20:37Z</time>
      </trkpt>
      <trkpt lat="59.9532956" lon="17.7243511">
        <ele>48.2034</ele>
        <time>2014-06-25T19:20:38Z</time>
      </trkpt>
      <trkpt lat="59.9533138" lon="17.7243194">
        <ele>48.684</ele>
        <time>2014-06-25T19:20:39Z</time>
      </trkpt>
      <trkpt lat="59.9533325" lon="17.7242756">
        <ele>49.1646</ele>
        <time>2014-06-25T19:20:40Z</time>
      </trkpt>
      <trkpt lat="59.953348" lon="17.7242352">
        <ele>49.1646</ele>
        <time>2014-06-25T19:20:41Z</time>
      </trkpt>
      <trkpt lat="59.9533685" lon="17.7242078">
        <ele>49.1646</ele>
        <time>2014-06-25T19:20:42Z</time>
      </trkpt>
      <trkpt lat="59.9533878" lon="17.7241793">
        <ele>49.6453</ele>
        <time>2014-06-25T19:20:43Z</time>
      </trkpt>
      <trkpt lat="59.9534028" lon="17.724131">
        <ele>50.6066</ele>
        <time>2014-06-25T19:20:44Z</time>
      </trkpt>
      <trkpt lat="59.9534208" lon="17.7240777">
        <ele>52.0486</ele>
        <time>2014-06-25T19:20:45Z</time>
      </trkpt>
      <trkpt lat="59.9534354" lon="17.7240316">
        <ele>53.0098</ele>
        <time>2014-06-25T19:20:46Z</time>
      </trkpt>
      <trkpt lat="59.9534529" lon="17.7239911">
        <ele>53.4905</ele>
        <time>2014-06-25T19:20:47Z</time>
      </trkpt>
      <trkpt lat="59.9534749" lon="17.7239502">
        <ele>55.4131</ele>
        <time>2014-06-25T19:20:48Z</time>
      </trkpt>
      <trkpt lat="59.9535023" lon="17.723911">
        <ele>57.3358</ele>
        <time>2014-06-25T19:20:49Z</time>
      </trkpt>
      <trkpt lat="59.9535266" lon="17.7238658">
        <ele>59.2584</ele>
        <time>2014-06-25T19:20:50Z</time>
      </trkpt>
      <trkpt lat="59.953538" lon="17.7238088">
        <ele>59.2584</ele>
        <time>2014-06-25T19:20:51Z</time>
      </trkpt>
      <trkpt lat="59.953547" lon="17.723756">
        <ele>58.7777</ele>
        <time>2014-06-25T19:20:52Z</time>
      </trkpt>
      <trkpt lat="59.9535675" lon="17.723714">
        <ele>59.7391</ele>
        <time>2014-06-25T19:20:53Z</time>
      </trkpt>
      <trkpt lat="59.9535861" lon="17.7236607">
        <ele>60.2197</ele>
        <time>2014-06-25T19:20:54Z</time>
      </trkpt>
      <trkpt lat="59.9535972" lon="17.7236135">
        <ele>60.2197</ele>
        <time>2014-06-25T19:20:55Z</time>
      </trkpt>
      <trkpt lat="59.9536096" lon="17.7235736">
        <ele>60.7003</ele>
        <time>2014-06-25T19:20:56Z</time>
      </trkpt>
      <trkpt lat="59.9536292" lon="17.723536">
        <ele>62.1423</ele>
        <time>2014-06-25T19:20:57Z</time>
      </trkpt>
      <trkpt lat="59.953652" lon="17.7234985">
        <ele>62.6229</ele>
        <time>2014-06-25T19:20:58Z</time>
      </trkpt>
      <trkpt lat="59.9536712" lon="17.7234675">
        <ele>63.5844</ele>
        <time>2014-06-25T19:20:59Z</time>
      </trkpt>
      <trkpt lat="59.9536852" lon="17.7234484">
        <ele>64.5457</ele>
        <time>2014-06-25T19:21:00Z</time>
      </trkpt>
      <trkpt lat="59.9536974" lon="17.723427">
        <ele>65.5071</ele>
        <time>2014-06-25T19:21:01Z</time>
      </trkpt>
      <trkpt lat="59.9537063" lon="17.7233969">
        <ele>65.5071</ele>
        <time>2014-06-25T19:21:02Z</time>
      </trkpt>
      <trkpt lat="59.9537254" lon="17.723371">
        <ele>65.9877</ele>
        <time>2014-06-25T19:21:03Z</time>
      </trkpt>
      <trkpt lat="59.9537441" lon="17.7233488">
        <ele>65.5071</ele>
        <time>2014-06-25T19:21:04Z</time>
      </trkpt>
      <trkpt lat="59.9537568" lon="17.7233315">
        <ele>65.0264</ele>
        <time>2014-06-25T19:21:05Z</time>
      </trkpt>
      <trkpt lat="59.9537801" lon="17.7233136">
        <ele>65.5071</ele>
        <time>2014-06-25T19:21:06Z</time>
      </trkpt>
      <trkpt lat="59.9537955" lon="17.7232908">
        <ele>64.5457</ele>
        <time>2014-06-25T19:21:07Z</time>
      </trkpt>
      <trkpt lat="59.9538117" lon="17.7232639">
        <ele>64.0651</ele>
        <time>2014-06-25T19:21:08Z</time>
      </trkpt>
      <trkpt lat="59.9538295" lon="17.7232394">
        <ele>63.5844</ele>
        <time>2014-06-25T19:21:09Z</time>
      </trkpt>
      <trkpt lat="59.9538509" lon="17.7232199">
        <ele>64.0651</ele>
        <time>2014-06-25T19:21:10Z</time>
      </trkpt>
      <trkpt lat="59.9538761" lon="17.7232023">
        <ele>63.1036</ele>
        <time>2014-06-25T19:21:11Z</time>
      </trkpt>
      <trkpt lat="59.9538924" lon="17.7231747">
        <ele>63.1036</ele>
        <time>2014-06-25T19:21:12Z</time>
      </trkpt>
      <trkpt lat="59.9539084" lon="17.7231518">
        <ele>63.5844</ele>
        <time>2014-06-25T19:21:13Z</time>
      </trkpt>
      <trkpt lat="59.953924" lon="17.7231369">
        <ele>63.5844</ele>
        <time>2014-06-25T19:21:14Z</time>
      </trkpt>
      <trkpt lat="59.9539333" lon="17.7231224">
        <ele>63.1036</ele>
        <time>2014-06-25T19:21:15Z</time>
      </trkpt>
      <trkpt lat="59.9539502" lon="17.7231121">
        <ele>63.1036</ele>
        <time>2014-06-25T19:21:16Z</time>
      </trkpt>
      <trkpt lat="59.953968" lon="17.7231028">
        <ele>63.1036</ele>
        <time>2014-06-25T19:21:17Z</time>
      </trkpt>
      <trkpt lat="59.9539929" lon="17.7230995">
        <ele>63.5844</ele>
        <time>2014-06-25T19:21:18Z</time>
      </trkpt>
      <trkpt lat="59.9540229" lon="17.7231086">
        <ele>64.0651</ele>
        <time>2014-06-25T19:21:19Z</time>
      </trkpt>
      <trkpt lat="59.9540597" lon="17.7231063">
        <ele>64.0651</ele>
        <time>2014-06-25T19:21:20Z</time>
      </trkpt>
      <trkpt lat="59.9540958" lon="17.7231049">
        <ele>64.5457</ele>
        <time>2014-06-25T19:21:21Z</time>
      </trkpt>
      <trkpt lat="59.9541301" lon="17.7231156">
        <ele>64.5457</ele>
        <time>2014-06-25T19:21:22Z</time>
      </trkpt>
      <trkpt lat="59.9541612" lon="17.7231344">
        <ele>64.0651</ele>
        <time>2014-06-25T19:21:23Z</time>
      </trkpt>
      <trkpt lat="59.9541952" lon="17.7231586">
        <ele>63.5844</ele>
        <time>2014-06-25T19:21:24Z</time>
      </trkpt>
      <trkpt lat="59.9542219" lon="17.7231784">
        <ele>62.6229</ele>
        <time>2014-06-25T19:21:25Z</time>
      </trkpt>
      <trkpt lat="59.9542528" lon="17.7231913">
        <ele>61.181</ele>
        <time>2014-06-25T19:21:26Z</time>
      </trkpt>
      <trkpt lat="59.9542805" lon="17.7232023">
        <ele>60.7003</ele>
        <time>2014-06-25T19:21:27Z</time>
      </trkpt>
      <trkpt lat="59.9543051" lon="17.7232043">
        <ele>59.2584</ele>
        <time>2014-06-25T19:21:28Z</time>
      </trkpt>
      <trkpt lat="59.9543428" lon="17.7232131">
        <ele>60.2197</ele>
        <time>2014-06-25T19:21:29Z</time>
      </trkpt>
      <trkpt lat="59.9543796" lon="17.72323">
        <ele>60.2197</ele>
        <time>2014-06-25T19:21:30Z</time>
      </trkpt>
      <trkpt lat="59.9544332" lon="17.7232573">
        <ele>62.6229</ele>
        <time>2014-06-25T19:21:31Z</time>
      </trkpt>
      <trkpt lat="59.9544762" lon="17.7232846">
        <ele>64.5457</ele>
        <time>2014-06-25T19:21:32Z</time>
      </trkpt>
      <trkpt lat="59.9545062" lon="17.7233184">
        <ele>65.5071</ele>
        <time>2014-06-25T19:21:33Z</time>
      </trkpt>
      <trkpt lat="59.9545316" lon="17.7233519">
        <ele>66.4683</ele>
        <time>2014-06-25T19:21:34Z</time>
      </trkpt>
      <trkpt lat="59.9545609" lon="17.7233699">
        <ele>67.4297</ele>
        <time>2014-06-25T19:21:35Z</time>
      </trkpt>
      <trkpt lat="59.9546036" lon="17.7233914">
        <ele>68.3909</ele>
        <time>2014-06-25T19:21:36Z</time>
      </trkpt>
      <trkpt lat="59.9546519" lon="17.7234294">
        <ele>71.2749</ele>
        <time>2014-06-25T19:21:37Z</time>
      </trkpt>
      <trkpt lat="59.954685" lon="17.7234647">
        <ele>72.2362</ele>
        <time>2014-06-25T19:21:38Z</time>
      </trkpt>
      <trkpt lat="59.9547329" lon="17.7234856">
        <ele>72.7169</ele>
        <time>2014-06-25T19:21:39Z</time>
      </trkpt>
      <trkpt lat="59.9547767" lon="17.7235027">
        <ele>74.6395</ele>
        <time>2014-06-25T19:21:40Z</time>
      </trkpt>
      <trkpt lat="59.9548059" lon="17.7235192">
        <ele>74.6395</ele>
        <time>2014-06-25T19:21:41Z</time>
      </trkpt>
      <trkpt lat="59.9548439" lon="17.723538">
        <ele>75.6008</ele>
        <time>2014-06-25T19:21:42Z</time>
      </trkpt>
      <trkpt lat="59.9548772" lon="17.7235558">
        <ele>75.6008</ele>
        <time>2014-06-25T19:21:43Z</time>
      </trkpt>
      <trkpt lat="59.9549116" lon="17.723566">
        <ele>76.0814</ele>
        <time>2014-06-25T19:21:44Z</time>
      </trkpt>
      <trkpt lat="59.9549334" lon="17.7235762">
        <ele>75.1202</ele>
        <time>2014-06-25T19:21:45Z</time>
      </trkpt>
      <trkpt lat="59.9549558" lon="17.7235896">
        <ele>74.1588</ele>
        <time>2014-06-25T19:21:46Z</time>
      </trkpt>
      <trkpt lat="59.9549775" lon="17.723611">
        <ele>72.7169</ele>
        <time>2014-06-25T19:21:47Z</time>
      </trkpt>
      <trkpt lat="59.9550009" lon="17.7236139">
        <ele>71.7555</ele>
        <time>2014-06-25T19:21:48Z</time>
      </trkpt>
      <trkpt lat="59.9550392" lon="17.7236191">
        <ele>72.7169</ele>
        <time>2014-06-25T19:21:49Z</time>
      </trkpt>
      <trkpt lat="59.9550708" lon="17.7236167">
        <ele>74.6395</ele>
        <time>2014-06-25T19:21:50Z</time>
      </trkpt>
      <trkpt lat="59.9550841" lon="17.7236072">
        <ele>73.6782</ele>
        <time>2014-06-25T19:21:51Z</time>
      </trkpt>
      <trkpt lat="59.9550908" lon="17.7235954">
        <ele>73.1976</ele>
        <time>2014-06-25T19:21:52Z</time>
      </trkpt>
      <trkpt lat="59.9551" lon="17.7235788">
        <ele>72.7169</ele>
        <time>2014-06-25T19:21:53Z</time>
      </trkpt>
      <trkpt lat="59.9551087" lon="17.7235616">
        <ele>71.2749</ele>
        <time>2014-06-25T19:21:54Z</time>
      </trkpt>
      <trkpt lat="59.9551232" lon="17.723541">
        <ele>71.2749</ele>
        <time>2014-06-25T19:21:55Z</time>
      </trkpt>
      <trkpt lat="59.9551261" lon="17.723516">
        <ele>70.7942</ele>
        <time>2014-06-25T19:21:56Z</time>
      </trkpt>
      <trkpt lat="59.9551367" lon="17.7234908">
        <ele>70.3135</ele>
        <time>2014-06-25T19:21:57Z</time>
      </trkpt>
      <trkpt lat="59.9551501" lon="17.7234541">
        <ele>70.3135</ele>
        <time>2014-06-25T19:21:58Z</time>
      </trkpt>
      <trkpt lat="59.9551623" lon="17.7234285">
        <ele>70.3135</ele>
        <time>2014-06-25T19:21:59Z</time>
      </trkpt>
      <trkpt lat="59.9551755" lon="17.7233904">
        <ele>69.3523</ele>
        <time>2014-06-25T19:22:00Z</time>
      </trkpt>
      <trkpt lat="59.9551858" lon="17.7233617">
        <ele>68.3909</ele>
        <time>2014-06-25T19:22:01Z</time>
      </trkpt>
      <trkpt lat="59.9552008" lon="17.7233337">
        <ele>67.9103</ele>
        <time>2014-06-25T19:22:02Z</time>
      </trkpt>
      <trkpt lat="59.9552178" lon="17.7233074">
        <ele>66.949</ele>
        <time>2014-06-25T19:22:03Z</time>
      </trkpt>
      <trkpt lat="59.9552388" lon="17.7232908">
        <ele>66.949</ele>
        <time>2014-06-25T19:22:04Z</time>
      </trkpt>
      <trkpt lat="59.9552628" lon="17.7232881">
        <ele>66.4683</ele>
        <time>2014-06-25T19:22:05Z</time>
      </trkpt>
      <trkpt lat="59.9552862" lon="17.723281">
        <ele>66.949</ele>
        <time>2014-06-25T19:22:06Z</time>
      </trkpt>
      <trkpt lat="59.9553196" lon="17.7232913">
        <ele>66.949</ele>
        <time>2014-06-25T19:22:07Z</time>
      </trkpt>
      <trkpt lat="59.9553464" lon="17.7233054">
        <ele>66.949</ele>
        <time>2014-06-25T19:22:08Z</time>
      </trkpt>
      <trkpt lat="59.9553753" lon="17.7233183">
        <ele>66.949</ele>
        <time>2014-06-25T19:22:09Z</time>
      </trkpt>
      <trkpt lat="59.9554034" lon="17.7233235">
        <ele>66.949</ele>
        <time>2014-06-25T19:22:10Z</time>
      </trkpt>
      <trkpt lat="59.9554312" lon="17.7233217">
        <ele>66.949</ele>
        <time>2014-06-25T19:22:11Z</time>
      </trkpt>
      <trkpt lat="59.955476" lon="17.7233385">
        <ele>68.3909</ele>
        <time>2014-06-25T19:22:12Z</time>
      </trkpt>
      <trkpt lat="59.9555199" lon="17.7233623">
        <ele>69.3523</ele>
        <time>2014-06-25T19:22:13Z</time>
      </trkpt>
      <trkpt lat="59.9555511" lon="17.723381">
        <ele>69.8329</ele>
        <time>2014-06-25T19:22:14Z</time>
      </trkpt>
      <trkpt lat="59.9555723" lon="17.7234038">
        <ele>68.8716</ele>
        <time>2014-06-25T19:22:15Z</time>
      </trkpt>
      <trkpt lat="59.955594" lon="17.7234261">
        <ele>67.9103</ele>
        <time>2014-06-25T19:22:16Z</time>
      </trkpt>
      <trkpt lat="59.9556271" lon="17.723456">
        <ele>67.9103</ele>
        <time>2014-06-25T19:22:17Z</time>
      </trkpt>
      <trkpt lat="59.9556558" lon="17.7234973">
        <ele>68.8716</ele>
        <time>2014-06-25T19:22:18Z</time>
      </trkpt>
      <trkpt lat="59.9556778" lon="17.7235277">
        <ele>68.3909</ele>
        <time>2014-06-25T19:22:19Z</time>
      </trkpt>
      <trkpt lat="59.9557047" lon="17.723554">
        <ele>68.3909</ele>
        <time>2014-06-25T19:22:20Z</time>
      </trkpt>
      <trkpt lat="59.955735" lon="17.723574">
        <ele>68.3909</ele>
        <time>2014-06-25T19:22:21Z</time>
      </trkpt>
      <trkpt lat="59.9557568" lon="17.7235948">
        <ele>66.949</ele>
        <time>2014-06-25T19:22:22Z</time>
      </trkpt>
      <trkpt lat="59.9557882" lon="17.7236244">
        <ele>66.4683</ele>
        <time>2014-06-25T19:22:23Z</time>
      </trkpt>
      <trkpt lat="59.9558135" lon="17.7236456">
        <ele>65.9877</ele>
        <time>2014-06-25T19:22:24Z</time>
      </trkpt>
      <trkpt lat="59.955836" lon="17.723662">
        <ele>65.9877</ele>
        <time>2014-06-25T19:22:25Z</time>
      </trkpt>
      <trkpt lat="59.9558627" lon="17.7236731">
        <ele>65.9877</ele>
        <time>2014-06-25T19:22:26Z</time>
      </trkpt>
      <trkpt lat="59.9558925" lon="17.7236789">
        <ele>66.949</ele>
        <time>2014-06-25T19:22:27Z</time>
      </trkpt>
      <trkpt lat="59.95591" lon="17.723687">
        <ele>67.9103</ele>
        <time>2014-06-25T19:22:28Z</time>
      </trkpt>
      <trkpt lat="59.9559229" lon="17.7236719">
        <ele>66.949</ele>
        <time>2014-06-25T19:22:29Z</time>
      </trkpt>
      <trkpt lat="59.9559374" lon="17.7236503">
        <ele>66.4683</ele>
        <time>2014-06-25T19:22:30Z</time>
      </trkpt>
      <trkpt lat="59.9559499" lon="17.7236229">
        <ele>65.5071</ele>
        <time>2014-06-25T19:22:31Z</time>
      </trkpt>
      <trkpt lat="59.955966" lon="17.7235984">
        <ele>64.0651</ele>
        <time>2014-06-25T19:22:32Z</time>
      </trkpt>
      <trkpt lat="59.9559746" lon="17.723543">
        <ele>63.1036</ele>
        <time>2014-06-25T19:22:33Z</time>
      </trkpt>
      <trkpt lat="59.9559837" lon="17.7234839">
        <ele>61.181</ele>
        <time>2014-06-25T19:22:34Z</time>
      </trkpt>
      <trkpt lat="59.9559924" lon="17.7234372">
        <ele>59.2584</ele>
        <time>2014-06-25T19:22:35Z</time>
      </trkpt>
      <trkpt lat="59.9559953" lon="17.723379">
        <ele>57.8165</ele>
        <time>2014-06-25T19:22:36Z</time>
      </trkpt>
      <trkpt lat="59.956009" lon="17.7233323">
        <ele>56.8551</ele>
        <time>2014-06-25T19:22:37Z</time>
      </trkpt>
      <trkpt lat="59.9560225" lon="17.7232873">
        <ele>56.3745</ele>
        <time>2014-06-25T19:22:38Z</time>
      </trkpt>
      <trkpt lat="59.9560404" lon="17.7232379">
        <ele>55.8938</ele>
        <time>2014-06-25T19:22:39Z</time>
      </trkpt>
      <trkpt lat="59.9560628" lon="17.7231851">
        <ele>56.3745</ele>
        <time>2014-06-25T19:22:40Z</time>
      </trkpt>
      <trkpt lat="59.9560769" lon="17.7231287">
        <ele>55.8938</ele>
        <time>2014-06-25T19:22:41Z</time>
      </trkpt>
      <trkpt lat="59.9560877" lon="17.7230788">
        <ele>55.8938</ele>
        <time>2014-06-25T19:22:42Z</time>
      </trkpt>
      <trkpt lat="59.9560892" lon="17.7230369">
        <ele>55.8938</ele>
        <time>2014-06-25T19:22:43Z</time>
      </trkpt>
      <trkpt lat="59.9560815" lon="17.7229866">
        <ele>55.4131</ele>
        <time>2014-06-25T19:22:44Z</time>
      </trkpt>
      <trkpt lat="59.9560733" lon="17.7229325">
        <ele>54.9324</ele>
        <time>2014-06-25T19:22:45Z</time>
      </trkpt>
      <trkpt lat="59.9560675" lon="17.7228852">
        <ele>54.9324</ele>
        <time>2014-06-25T19:22:46Z</time>
      </trkpt>
      <trkpt lat="59.9560648" lon="17.7228365">
        <ele>55.4131</ele>
        <time>2014-06-25T19:22:47Z</time>
      </trkpt>
      <trkpt lat="59.9560603" lon="17.7227785">
        <ele>55.8938</ele>
        <time>2014-06-25T19:22:48Z</time>
      </trkpt>
      <trkpt lat="59.9560468" lon="17.722705">
        <ele>55.8938</ele>
        <time>2014-06-25T19:22:49Z</time>
      </trkpt>
      <trkpt lat="59.95604" lon="17.7226444">
        <ele>56.3745</ele>
        <time>2014-06-25T19:22:50Z</time>
      </trkpt>
      <trkpt lat="59.9560201" lon="17.7225847">
        <ele>55.8938</ele>
        <time>2014-06-25T19:22:51Z</time>
      </trkpt>
      <trkpt lat="59.9560044" lon="17.7225392">
        <ele>56.3745</ele>
        <time>2014-06-25T19:22:52Z</time>
      </trkpt>
      <trkpt lat="59.9559846" lon="17.7224944">
        <ele>56.8551</ele>
        <time>2014-06-25T19:22:53Z</time>
      </trkpt>
      <trkpt lat="59.9559516" lon="17.722431">
        <ele>57.3358</ele>
        <time>2014-06-25T19:22:54Z</time>
      </trkpt>
      <trkpt lat="59.9559157" lon="17.7223554">
        <ele>57.8165</ele>
        <time>2014-06-25T19:22:55Z</time>
      </trkpt>
      <trkpt lat="59.9558912" lon="17.7222934">
        <ele>58.7777</ele>
        <time>2014-06-25T19:22:56Z</time>
      </trkpt>
      <trkpt lat="59.955884" lon="17.7222248">
        <ele>60.2197</ele>
        <time>2014-06-25T19:22:57Z</time>
      </trkpt>
      <trkpt lat="59.9558732" lon="17.7221616">
        <ele>60.7003</ele>
        <time>2014-06-25T19:22:58Z</time>
      </trkpt>
      <trkpt lat="59.955853" lon="17.7220968">
        <ele>61.181</ele>
        <time>2014-06-25T19:22:59Z</time>
      </trkpt>
      <trkpt lat="59.9558458" lon="17.7220387">
        <ele>62.6229</ele>
        <time>2014-06-25T19:23:00Z</time>
      </trkpt>
      <trkpt lat="59.9558416" lon="17.7219897">
        <ele>62.6229</ele>
        <time>2014-06-25T19:23:01Z</time>
      </trkpt>
      <trkpt lat="59.9558391" lon="17.7219373">
        <ele>62.6229</ele>
        <time>2014-06-25T19:23:02Z</time>
      </trkpt>
      <trkpt lat="59.9558456" lon="17.7219032">
        <ele>63.5844</ele>
        <time>2014-06-25T19:23:03Z</time>
      </trkpt>
      <trkpt lat="59.9558537" lon="17.7218716">
        <ele>64.0651</ele>
        <time>2014-06-25T19:23:04Z</time>
      </trkpt>
      <trkpt lat="59.9558619" lon="17.7218321">
        <ele>64.5457</ele>
        <time>2014-06-25T19:23:05Z</time>
      </trkpt>
      <trkpt lat="59.9558759" lon="17.7217949">
        <ele>65.0264</ele>
        <time>2014-06-25T19:23:06Z</time>
      </trkpt>
      <trkpt lat="59.9558868" lon="17.7217462">
        <ele>64.5457</ele>
        <time>2014-06-25T19:23:07Z</time>
      </trkpt>
      <trkpt lat="59.9558888" lon="17.7216896">
        <ele>64.5457</ele>
        <time>2014-06-25T19:23:08Z</time>
      </trkpt>
      <trkpt lat="59.9559034" lon="17.721638">
        <ele>65.5071</ele>
        <time>2014-06-25T19:23:09Z</time>
      </trkpt>
      <trkpt lat="59.955923" lon="17.7215884">
        <ele>67.4297</ele>
        <time>2014-06-25T19:23:10Z</time>
      </trkpt>
      <trkpt lat="59.9559487" lon="17.7215414">
        <ele>67.9103</ele>
        <time>2014-06-25T19:23:11Z</time>
      </trkpt>
      <trkpt lat="59.9559828" lon="17.7214914">
        <ele>68.8716</ele>
        <time>2014-06-25T19:23:12Z</time>
      </trkpt>
      <trkpt lat="59.9559956" lon="17.7214466">
        <ele>67.9103</ele>
        <time>2014-06-25T19:23:13Z</time>
      </trkpt>
      <trkpt lat="59.9559872" lon="17.721389">
        <ele>67.4297</ele>
        <time>2014-06-25T19:23:14Z</time>
      </trkpt>
      <trkpt lat="59.9559831" lon="17.7213403">
        <ele>67.4297</ele>
        <time>2014-06-25T19:23:15Z</time>
      </trkpt>
      <trkpt lat="59.9559654" lon="17.7212919">
        <ele>66.949</ele>
        <time>2014-06-25T19:23:16Z</time>
      </trkpt>
      <trkpt lat="59.955943" lon="17.7212451">
        <ele>66.4683</ele>
        <time>2014-06-25T19:23:17Z</time>
      </trkpt>
      <trkpt lat="59.9559245" lon="17.7212028">
        <ele>65.9877</ele>
        <time>2014-06-25T19:23:18Z</time>
      </trkpt>
      <trkpt lat="59.9558924" lon="17.7211749">
        <ele>64.5457</ele>
        <time>2014-06-25T19:23:19Z</time>
      </trkpt>
      <trkpt lat="59.9558613" lon="17.7211618">
        <ele>63.5844</ele>
        <time>2014-06-25T19:23:20Z</time>
      </trkpt>
      <trkpt lat="59.9558301" lon="17.7211569">
        <ele>62.1423</ele>
        <time>2014-06-25T19:23:21Z</time>
      </trkpt>
      <trkpt lat="59.9558064" lon="17.7211617">
        <ele>61.6617</ele>
        <time>2014-06-25T19:23:22Z</time>
      </trkpt>
      <trkpt lat="59.9557852" lon="17.7211813">
        <ele>60.7003</ele>
        <time>2014-06-25T19:23:23Z</time>
      </trkpt>
      <trkpt lat="59.9557725" lon="17.7212119">
        <ele>60.2197</ele>
        <time>2014-06-25T19:23:24Z</time>
      </trkpt>
      <trkpt lat="59.955758" lon="17.7212337">
        <ele>60.2197</ele>
        <time>2014-06-25T19:23:25Z</time>
      </trkpt>
      <trkpt lat="59.9557435" lon="17.7212504">
        <ele>61.181</ele>
        <time>2014-06-25T19:23:26Z</time>
      </trkpt>
      <trkpt lat="59.9557242" lon="17.721251">
        <ele>60.2197</ele>
        <time>2014-06-25T19:23:27Z</time>
      </trkpt>
      <trkpt lat="59.955694" lon="17.7212525">
        <ele>60.2197</ele>
        <time>2014-06-25T19:23:28Z</time>
      </trkpt>
      <trkpt lat="59.9556637" lon="17.7212642">
        <ele>60.2197</ele>
        <time>2014-06-25T19:23:29Z</time>
      </trkpt>
      <trkpt lat="59.9556287" lon="17.7212862">
        <ele>60.2197</ele>
        <time>2014-06-25T19:23:30Z</time>
      </trkpt>
      <trkpt lat="59.9555977" lon="17.7213073">
        <ele>61.181</ele>
        <time>2014-06-25T19:23:31Z</time>
      </trkpt>
      <trkpt lat="59.9555676" lon="17.7213281">
        <ele>61.6617</ele>
        <time>2014-06-25T19:23:32Z</time>
      </trkpt>
      <trkpt lat="59.9555313" lon="17.7213443">
        <ele>62.6229</ele>
        <time>2014-06-25T19:23:33Z</time>
      </trkpt>
      <trkpt lat="59.9555008" lon="17.7213623">
        <ele>63.1036</ele>
        <time>2014-06-25T19:23:34Z</time>
      </trkpt>
      <trkpt lat="59.9554785" lon="17.7213773">
        <ele>62.6229</ele>
        <time>2014-06-25T19:23:35Z</time>
      </trkpt>
      <trkpt lat="59.9554479" lon="17.7213861">
        <ele>63.1036</ele>
        <time>2014-06-25T19:23:36Z</time>
      </trkpt>
      <trkpt lat="59.9554161" lon="17.7213974">
        <ele>63.5844</ele>
        <time>2014-06-25T19:23:37Z</time>
      </trkpt>
      <trkpt lat="59.9553842" lon="17.721396">
        <ele>63.5844</ele>
        <time>2014-06-25T19:23:38Z</time>
      </trkpt>
      <trkpt lat="59.955349" lon="17.7213874">
        <ele>64.0651</ele>
        <time>2014-06-25T19:23:39Z</time>
      </trkpt>
      <trkpt lat="59.9553178" lon="17.7213729">
        <ele>64.5457</ele>
        <time>2014-06-25T19:23:40Z</time>
      </trkpt>
      <trkpt lat="59.9552867" lon="17.7213529">
        <ele>64.5457</ele>
        <time>2014-06-25T19:23:41Z</time>
      </trkpt>
      <trkpt lat="59.9552579" lon="17.721336">
        <ele>64.5457</ele>
        <time>2014-06-25T19:23:42Z</time>
      </trkpt>
      <trkpt lat="59.9552247" lon="17.7213245">
        <ele>65.0264</ele>
        <time>2014-06-25T19:23:43Z</time>
      </trkpt>
      <trkpt lat="59.9551908" lon="17.7213245">
        <ele>65.9877</ele>
        <time>2014-06-25T19:23:44Z</time>
      </trkpt>
      <trkpt lat="59.9551589" lon="17.7213213">
        <ele>66.949</ele>
        <time>2014-06-25T19:23:45Z</time>
      </trkpt>
      <trkpt lat="59.9551319" lon="17.7213163">
        <ele>66.949</ele>
        <time>2014-06-25T19:23:46Z</time>
      </trkpt>
      <trkpt lat="59.9551015" lon="17.7213136">
        <ele>66.949</ele>
        <time>2014-06-25T19:23:47Z</time>
      </trkpt>
      <trkpt lat="59.9550714" lon="17.7213183">
        <ele>67.4297</ele>
        <time>2014-06-25T19:23:48Z</time>
      </trkpt>
      <trkpt lat="59.9550486" lon="17.7213149">
        <ele>66.949</ele>
        <time>2014-06-25T19:23:49Z</time>
      </trkpt>
      <trkpt lat="59.9550242" lon="17.7213177">
        <ele>66.4683</ele>
        <time>2014-06-25T19:23:50Z</time>
      </trkpt>
      <trkpt lat="59.9549916" lon="17.7213255">
        <ele>67.4297</ele>
        <time>2014-06-25T19:23:51Z</time>
      </trkpt>
      <trkpt lat="59.9549584" lon="17.721322">
        <ele>67.9103</ele>
        <time>2014-06-25T19:23:52Z</time>
      </trkpt>
      <trkpt lat="59.9549352" lon="17.7213213">
        <ele>68.3909</ele>
        <time>2014-06-25T19:23:53Z</time>
      </trkpt>
      <trkpt lat="59.9549061" lon="17.7213106">
        <ele>68.3909</ele>
        <time>2014-06-25T19:23:54Z</time>
      </trkpt>
      <trkpt lat="59.9548843" lon="17.7212938">
        <ele>68.3909</ele>
        <time>2014-06-25T19:23:55Z</time>
      </trkpt>
      <trkpt lat="59.9548544" lon="17.7212823">
        <ele>68.3909</ele>
        <time>2014-06-25T19:23:56Z</time>
      </trkpt>
      <trkpt lat="59.9548225" lon="17.7212694">
        <ele>68.8716</ele>
        <time>2014-06-25T19:23:57Z</time>
      </trkpt>
      <trkpt lat="59.9547914" lon="17.7212347">
        <ele>68.3909</ele>
        <time>2014-06-25T19:23:58Z</time>
      </trkpt>
      <trkpt lat="59.9547658" lon="17.7212043">
        <ele>68.3909</ele>
        <time>2014-06-25T19:23:59Z</time>
      </trkpt>
      <trkpt lat="59.9547381" lon="17.7211731">
        <ele>67.9103</ele>
        <time>2014-06-25T19:24:00Z</time>
      </trkpt>
      <trkpt lat="59.9547191" lon="17.7211448">
        <ele>68.3909</ele>
        <time>2014-06-25T19:24:01Z</time>
      </trkpt>
      <trkpt lat="59.9547021" lon="17.7210998">
        <ele>68.8716</ele>
        <time>2014-06-25T19:24:02Z</time>
      </trkpt>
      <trkpt lat="59.9546922" lon="17.7210421">
        <ele>68.3909</ele>
        <time>2014-06-25T19:24:03Z</time>
      </trkpt>
      <trkpt lat="59.9546746" lon="17.7209879">
        <ele>68.8716</ele>
        <time>2014-06-25T19:24:04Z</time>
      </trkpt>
      <trkpt lat="59.954657" lon="17.7209292">
        <ele>68.8716</ele>
        <time>2014-06-25T19:24:05Z</time>
      </trkpt>
      <trkpt lat="59.954644" lon="17.7208703">
        <ele>69.3523</ele>
        <time>2014-06-25T19:24:06Z</time>
      </trkpt>
      <trkpt lat="59.9546477" lon="17.7208096">
        <ele>68.8716</ele>
        <time>2014-06-25T19:24:07Z</time>
      </trkpt>
      <trkpt lat="59.9546635" lon="17.7207577">
        <ele>69.8329</ele>
        <time>2014-06-25T19:24:08Z</time>
      </trkpt>
      <trkpt lat="59.9546503" lon="17.720694">
        <ele>70.3135</ele>
        <time>2014-06-25T19:24:09Z</time>
      </trkpt>
      <trkpt lat="59.9546496" lon="17.7206329">
        <ele>70.3135</ele>
        <time>2014-06-25T19:24:10Z</time>
      </trkpt>
      <trkpt lat="59.954651" lon="17.7205754">
        <ele>70.7942</ele>
        <time>2014-06-25T19:24:11Z</time>
      </trkpt>
      <trkpt lat="59.9546596" lon="17.7205255">
        <ele>71.2749</ele>
        <time>2014-06-25T19:24:12Z</time>
      </trkpt>
      <trkpt lat="59.9546709" lon="17.7204701">
        <ele>71.2749</ele>
        <time>2014-06-25T19:24:13Z</time>
      </trkpt>
      <trkpt lat="59.9546927" lon="17.7204328">
        <ele>71.7555</ele>
        <time>2014-06-25T19:24:14Z</time>
      </trkpt>
      <trkpt lat="59.9547149" lon="17.7203883">
        <ele>73.1976</ele>
        <time>2014-06-25T19:24:15Z</time>
      </trkpt>
      <trkpt lat="59.9547469" lon="17.720351">
        <ele>75.1202</ele>
        <time>2014-06-25T19:24:16Z</time>
      </trkpt>
      <trkpt lat="59.9547621" lon="17.7203126">
        <ele>76.0814</ele>
        <time>2014-06-25T19:24:17Z</time>
      </trkpt>
      <trkpt lat="59.954798" lon="17.7202926">
        <ele>76.5621</ele>
        <time>2014-06-25T19:24:18Z</time>
      </trkpt>
      <trkpt lat="59.9548465" lon="17.7202682">
        <ele>77.0428</ele>
        <time>2014-06-25T19:24:19Z</time>
      </trkpt>
      <trkpt lat="59.9548812" lon="17.7202599">
        <ele>77.5234</ele>
        <time>2014-06-25T19:24:20Z</time>
      </trkpt>
      <trkpt lat="59.9549134" lon="17.7202463">
        <ele>78.004</ele>
        <time>2014-06-25T19:24:21Z</time>
      </trkpt>
      <trkpt lat="59.9549451" lon="17.7202319">
        <ele>77.5234</ele>
        <time>2014-06-25T19:24:22Z</time>
      </trkpt>
      <trkpt lat="59.9549652" lon="17.7202263">
        <ele>76.0814</ele>
        <time>2014-06-25T19:24:23Z</time>
      </trkpt>
      <trkpt lat="59.9549849" lon="17.7202153">
        <ele>74.6395</ele>
        <time>2014-06-25T19:24:24Z</time>
      </trkpt>
      <trkpt lat="59.9550056" lon="17.720196">
        <ele>73.1976</ele>
        <time>2014-06-25T19:24:25Z</time>
      </trkpt>
      <trkpt lat="59.9550258" lon="17.720178">
        <ele>71.7555</ele>
        <time>2014-06-25T19:24:26Z</time>
      </trkpt>
      <trkpt lat="59.9550567" lon="17.7201579">
        <ele>71.2749</ele>
        <time>2014-06-25T19:24:27Z</time>
      </trkpt>
      <trkpt lat="59.95508" lon="17.7201387">
        <ele>69.8329</ele>
        <time>2014-06-25T19:24:28Z</time>
      </trkpt>
      <trkpt lat="59.9551" lon="17.7201266">
        <ele>68.3909</ele>
        <time>2014-06-25T19:24:29Z</time>
      </trkpt>
      <trkpt lat="59.9551154" lon="17.7201134">
        <ele>66.949</ele>
        <time>2014-06-25T19:24:30Z</time>
      </trkpt>
      <trkpt lat="59.9551307" lon="17.7200942">
        <ele>65.5071</ele>
        <time>2014-06-25T19:24:31Z</time>
      </trkpt>
      <trkpt lat="59.9551501" lon="17.7200847">
        <ele>65.0264</ele>
        <time>2014-06-25T19:24:32Z</time>
      </trkpt>
      <trkpt lat="59.9551687" lon="17.7200606">
        <ele>64.5457</ele>
        <time>2014-06-25T19:24:33Z</time>
      </trkpt>
      <trkpt lat="59.9551937" lon="17.720042">
        <ele>63.5844</ele>
        <time>2014-06-25T19:24:34Z</time>
      </trkpt>
      <trkpt lat="59.9552133" lon="17.7200217">
        <ele>63.5844</ele>
        <time>2014-06-25T19:24:35Z</time>
      </trkpt>
      <trkpt lat="59.9552309" lon="17.7199984">
        <ele>62.6229</ele>
        <time>2014-06-25T19:24:36Z</time>
      </trkpt>
      <trkpt lat="59.9552501" lon="17.7199785">
        <ele>62.6229</ele>
        <time>2014-06-25T19:24:37Z</time>
      </trkpt>
      <trkpt lat="59.9552718" lon="17.719958">
        <ele>62.1423</ele>
        <time>2014-06-25T19:24:38Z</time>
      </trkpt>
      <trkpt lat="59.9552989" lon="17.7199396">
        <ele>62.6229</ele>
        <time>2014-06-25T19:24:39Z</time>
      </trkpt>
      <trkpt lat="59.9553195" lon="17.7199236">
        <ele>62.6229</ele>
        <time>2014-06-25T19:24:40Z</time>
      </trkpt>
      <trkpt lat="59.9553439" lon="17.7199042">
        <ele>62.6229</ele>
        <time>2014-06-25T19:24:41Z</time>
      </trkpt>
      <trkpt lat="59.9553677" lon="17.7198849">
        <ele>62.6229</ele>
        <time>2014-06-25T19:24:42Z</time>
      </trkpt>
      <trkpt lat="59.9553864" lon="17.7198687">
        <ele>62.1423</ele>
        <time>2014-06-25T19:24:43Z</time>
      </trkpt>
      <trkpt lat="59.955406" lon="17.7198522">
        <ele>62.1423</ele>
        <time>2014-06-25T19:24:44Z</time>
      </trkpt>
      <trkpt lat="59.9554309" lon="17.7198388">
        <ele>62.1423</ele>
        <time>2014-06-25T19:24:45Z</time>
      </trkpt>
      <trkpt lat="59.9554574" lon="17.7198236">
        <ele>62.1423</ele>
        <time>2014-06-25T19:24:46Z</time>
      </trkpt>
      <trkpt lat="59.9554785" lon="17.7198103">
        <ele>61.181</ele>
        <time>2014-06-25T19:24:47Z</time>
      </trkpt>
      <trkpt lat="59.9555001" lon="17.7198077">
        <ele>61.6617</ele>
        <time>2014-06-25T19:24:48Z</time>
      </trkpt>
      <trkpt lat="59.9555205" lon="17.7198123">
        <ele>62.1423</ele>
        <time>2014-06-25T19:24:49Z</time>
      </trkpt>
      <trkpt lat="59.9555464" lon="17.7197979">
        <ele>62.1423</ele>
        <time>2014-06-25T19:24:50Z</time>
      </trkpt>
      <trkpt lat="59.955578" lon="17.7197785">
        <ele>62.6229</ele>
        <time>2014-06-25T19:24:51Z</time>
      </trkpt>
      <trkpt lat="59.9556062" lon="17.7197564">
        <ele>62.1423</ele>
        <time>2014-06-25T19:24:52Z</time>
      </trkpt>
      <trkpt lat="59.9556321" lon="17.7197231">
        <ele>61.181</ele>
        <time>2014-06-25T19:24:53Z</time>
      </trkpt>
      <trkpt lat="59.9556604" lon="17.7196993">
        <ele>61.181</ele>
        <time>2014-06-25T19:24:54Z</time>
      </trkpt>
      <trkpt lat="59.9556896" lon="17.7196782">
        <ele>61.6617</ele>
        <time>2014-06-25T19:24:55Z</time>
      </trkpt>
      <trkpt lat="59.9557198" lon="17.7196542">
        <ele>61.181</ele>
        <time>2014-06-25T19:24:56Z</time>
      </trkpt>
      <trkpt lat="59.9557464" lon="17.7196333">
        <ele>60.7003</ele>
        <time>2014-06-25T19:24:57Z</time>
      </trkpt>
      <trkpt lat="59.9557713" lon="17.7196011">
        <ele>60.2197</ele>
        <time>2014-06-25T19:24:58Z</time>
      </trkpt>
      <trkpt lat="59.9557953" lon="17.7195694">
        <ele>60.2197</ele>
        <time>2014-06-25T19:24:59Z</time>
      </trkpt>
      <trkpt lat="59.9558233" lon="17.7195429">
        <ele>59.7391</ele>
        <time>2014-06-25T19:25:00Z</time>
      </trkpt>
      <trkpt lat="59.9558489" lon="17.7195195">
        <ele>59.2584</ele>
        <time>2014-06-25T19:25:01Z</time>
      </trkpt>
      <trkpt lat="59.9558754" lon="17.7195038">
        <ele>59.2584</ele>
        <time>2014-06-25T19:25:02Z</time>
      </trkpt>
      <trkpt lat="59.9559015" lon="17.7194866">
        <ele>59.2584</ele>
        <time>2014-06-25T19:25:03Z</time>
      </trkpt>
      <trkpt lat="59.9559259" lon="17.7194675">
        <ele>58.7777</ele>
        <time>2014-06-25T19:25:04Z</time>
      </trkpt>
      <trkpt lat="59.9559525" lon="17.7194472">
        <ele>59.2584</ele>
        <time>2014-06-25T19:25:05Z</time>
      </trkpt>
      <trkpt lat="59.9559767" lon="17.7194187">
        <ele>59.2584</ele>
        <time>2014-06-25T19:25:06Z</time>
      </trkpt>
      <trkpt lat="59.9560038" lon="17.7193918">
        <ele>58.2971</ele>
        <time>2014-06-25T19:25:07Z</time>
      </trkpt>
      <trkpt lat="59.9560311" lon="17.719362">
        <ele>58.2971</ele>
        <time>2014-06-25T19:25:08Z</time>
      </trkpt>
      <trkpt lat="59.9560559" lon="17.7193239">
        <ele>57.8165</ele>
        <time>2014-06-25T19:25:09Z</time>
      </trkpt>
      <trkpt lat="59.9560741" lon="17.7192821">
        <ele>56.8551</ele>
        <time>2014-06-25T19:25:10Z</time>
      </trkpt>
      <trkpt lat="59.9560909" lon="17.7192374">
        <ele>56.8551</ele>
        <time>2014-06-25T19:25:11Z</time>
      </trkpt>
      <trkpt lat="59.9561073" lon="17.7191902">
        <ele>56.3745</ele>
        <time>2014-06-25T19:25:12Z</time>
      </trkpt>
      <trkpt lat="59.9561243" lon="17.7191466">
        <ele>55.8938</ele>
        <time>2014-06-25T19:25:13Z</time>
      </trkpt>
      <trkpt lat="59.9561415" lon="17.719103">
        <ele>55.8938</ele>
        <time>2014-06-25T19:25:14Z</time>
      </trkpt>
      <trkpt lat="59.95615" lon="17.719053">
        <ele>55.4131</ele>
        <time>2014-06-25T19:25:15Z</time>
      </trkpt>
      <trkpt lat="59.9561632" lon="17.7190064">
        <ele>55.8938</ele>
        <time>2014-06-25T19:25:16Z</time>
      </trkpt>
      <trkpt lat="59.9561738" lon="17.7189586">
        <ele>56.3745</ele>
        <time>2014-06-25T19:25:17Z</time>
      </trkpt>
      <trkpt lat="59.9561893" lon="17.7189073">
        <ele>56.3745</ele>
        <time>2014-06-25T19:25:18Z</time>
      </trkpt>
      <trkpt lat="59.956204" lon="17.7188534">
        <ele>57.8165</ele>
        <time>2014-06-25T19:25:19Z</time>
      </trkpt>
      <trkpt lat="59.9562156" lon="17.718808">
        <ele>58.7777</ele>
        <time>2014-06-25T19:25:20Z</time>
      </trkpt>
      <trkpt lat="59.9562307" lon="17.7187592">
        <ele>58.7777</ele>
        <time>2014-06-25T19:25:21Z</time>
      </trkpt>
      <trkpt lat="59.9562372" lon="17.7187104">
        <ele>58.7777</ele>
        <time>2014-06-25T19:25:22Z</time>
      </trkpt>
      <trkpt lat="59.9562348" lon="17.7186565">
        <ele>58.7777</ele>
        <time>2014-06-25T19:25:23Z</time>
      </trkpt>
      <trkpt lat="59.9562442" lon="17.7185944">
        <ele>58.7777</ele>
        <time>2014-06-25T19:25:24Z</time>
      </trkpt>
      <trkpt lat="59.956232" lon="17.7185318">
        <ele>57.8165</ele>
        <time>2014-06-25T19:25:25Z</time>
      </trkpt>
      <trkpt lat="59.9562152" lon="17.7184779">
        <ele>56.8551</ele>
        <time>2014-06-25T19:25:26Z</time>
      </trkpt>
      <trkpt lat="59.9561969" lon="17.718432">
        <ele>56.8551</ele>
        <time>2014-06-25T19:25:27Z</time>
      </trkpt>
      <trkpt lat="59.9561768" lon="17.718395">
        <ele>56.3745</ele>
        <time>2014-06-25T19:25:28Z</time>
      </trkpt>
      <trkpt lat="59.9561561" lon="17.7183537">
        <ele>55.8938</ele>
        <time>2014-06-25T19:25:29Z</time>
      </trkpt>
      <trkpt lat="59.9561379" lon="17.7183064">
        <ele>55.8938</ele>
        <time>2014-06-25T19:25:30Z</time>
      </trkpt>
      <trkpt lat="59.9561228" lon="17.7182621">
        <ele>55.8938</ele>
        <time>2014-06-25T19:25:31Z</time>
      </trkpt>
      <trkpt lat="59.9561085" lon="17.718219">
        <ele>55.8938</ele>
        <time>2014-06-25T19:25:32Z</time>
      </trkpt>
      <trkpt lat="59.9560914" lon="17.7181795">
        <ele>55.4131</ele>
        <time>2014-06-25T19:25:33Z</time>
      </trkpt>
      <trkpt lat="59.9560711" lon="17.7181457">
        <ele>55.8938</ele>
        <time>2014-06-25T19:25:34Z</time>
      </trkpt>
      <trkpt lat="59.9560566" lon="17.718105">
        <ele>56.3745</ele>
        <time>2014-06-25T19:25:35Z</time>
      </trkpt>
      <trkpt lat="59.9560478" lon="17.7180771">
        <ele>56.8551</ele>
        <time>2014-06-25T19:25:36Z</time>
      </trkpt>
      <trkpt lat="59.9560272" lon="17.7180453">
        <ele>57.3358</ele>
        <time>2014-06-25T19:25:37Z</time>
      </trkpt>
      <trkpt lat="59.9559969" lon="17.7180025">
        <ele>58.2971</ele>
        <time>2014-06-25T19:25:38Z</time>
      </trkpt>
      <trkpt lat="59.9559715" lon="17.7179572">
        <ele>57.8165</ele>
        <time>2014-06-25T19:25:39Z</time>
      </trkpt>
      <trkpt lat="59.9559633" lon="17.7179181">
        <ele>58.7777</ele>
        <time>2014-06-25T19:25:40Z</time>
      </trkpt>
      <trkpt lat="59.9559515" lon="17.7178932">
        <ele>58.7777</ele>
        <time>2014-06-25T19:25:41Z</time>
      </trkpt>
      <trkpt lat="59.9559312" lon="17.7178555">
        <ele>58.2971</ele>
        <time>2014-06-25T19:25:42Z</time>
      </trkpt>
      <trkpt lat="59.9559142" lon="17.7178161">
        <ele>58.2971</ele>
        <time>2014-06-25T19:25:43Z</time>
      </trkpt>
      <trkpt lat="59.955895" lon="17.7177771">
        <ele>58.2971</ele>
        <time>2014-06-25T19:25:44Z</time>
      </trkpt>
      <trkpt lat="59.9558761" lon="17.7177436">
        <ele>58.7777</ele>
        <time>2014-06-25T19:25:45Z</time>
      </trkpt>
      <trkpt lat="59.9558547" lon="17.7177008">
        <ele>58.2971</ele>
        <time>2014-06-25T19:25:46Z</time>
      </trkpt>
      <trkpt lat="59.9558313" lon="17.7176589">
        <ele>58.2971</ele>
        <time>2014-06-25T19:25:47Z</time>
      </trkpt>
      <trkpt lat="59.9558152" lon="17.7176269">
        <ele>58.7777</ele>
        <time>2014-06-25T19:25:48Z</time>
      </trkpt>
      <trkpt lat="59.9557986" lon="17.7175964">
        <ele>58.7777</ele>
        <time>2014-06-25T19:25:49Z</time>
      </trkpt>
      <trkpt lat="59.9557791" lon="17.7175554">
        <ele>59.2584</ele>
        <time>2014-06-25T19:25:50Z</time>
      </trkpt>
      <trkpt lat="59.9557694" lon="17.7175195">
        <ele>59.2584</ele>
        <time>2014-06-25T19:25:51Z</time>
      </trkpt>
      <trkpt lat="59.9557578" lon="17.7174809">
        <ele>59.2584</ele>
        <time>2014-06-25T19:25:52Z</time>
      </trkpt>
      <trkpt lat="59.9557395" lon="17.7174307">
        <ele>58.7777</ele>
        <time>2014-06-25T19:25:53Z</time>
      </trkpt>
      <trkpt lat="59.9557235" lon="17.7173871">
        <ele>58.2971</ele>
        <time>2014-06-25T19:25:54Z</time>
      </trkpt>
      <trkpt lat="59.955714" lon="17.7173534">
        <ele>58.2971</ele>
        <time>2014-06-25T19:25:55Z</time>
      </trkpt>
      <trkpt lat="59.9557036" lon="17.717313">
        <ele>58.2971</ele>
        <time>2014-06-25T19:25:56Z</time>
      </trkpt>
      <trkpt lat="59.9556861" lon="17.7172617">
        <ele>58.2971</ele>
        <time>2014-06-25T19:25:57Z</time>
      </trkpt>
      <trkpt lat="59.9556698" lon="17.7172058">
        <ele>57.8165</ele>
        <time>2014-06-25T19:25:58Z</time>
      </trkpt>
      <trkpt lat="59.955654" lon="17.7171496">
        <ele>57.8165</ele>
        <time>2014-06-25T19:25:59Z</time>
      </trkpt>
      <trkpt lat="59.955638" lon="17.7171001">
        <ele>58.2971</ele>
        <time>2014-06-25T19:26:00Z</time>
      </trkpt>
      <trkpt lat="59.9556245" lon="17.7170533">
        <ele>58.2971</ele>
        <time>2014-06-25T19:26:01Z</time>
      </trkpt>
      <trkpt lat="59.9556192" lon="17.7170166">
        <ele>57.8165</ele>
        <time>2014-06-25T19:26:02Z</time>
      </trkpt>
      <trkpt lat="59.955606" lon="17.7169699">
        <ele>57.8165</ele>
        <time>2014-06-25T19:26:03Z</time>
      </trkpt>
      <trkpt lat="59.9555939" lon="17.7169121">
        <ele>57.3358</ele>
        <time>2014-06-25T19:26:04Z</time>
      </trkpt>
      <trkpt lat="59.9555789" lon="17.7168471">
        <ele>57.3358</ele>
        <time>2014-06-25T19:26:05Z</time>
      </trkpt>
      <trkpt lat="59.9555598" lon="17.7167845">
        <ele>56.8551</ele>
        <time>2014-06-25T19:26:06Z</time>
      </trkpt>
      <trkpt lat="59.9555427" lon="17.7167217">
        <ele>56.3745</ele>
        <time>2014-06-25T19:26:07Z</time>
      </trkpt>
      <trkpt lat="59.955527" lon="17.7166598">
        <ele>56.8551</ele>
        <time>2014-06-25T19:26:08Z</time>
      </trkpt>
      <trkpt lat="59.9555173" lon="17.7166091">
        <ele>57.3358</ele>
        <time>2014-06-25T19:26:09Z</time>
      </trkpt>
      <trkpt lat="59.9555106" lon="17.7165562">
        <ele>57.3358</ele>
        <time>2014-06-25T19:26:10Z</time>
      </trkpt>
      <trkpt lat="59.9555065" lon="17.7165007">
        <ele>56.8551</ele>
        <time>2014-06-25T19:26:11Z</time>
      </trkpt>
      <trkpt lat="59.9555003" lon="17.7164431">
        <ele>56.8551</ele>
        <time>2014-06-25T19:26:12Z</time>
      </trkpt>
      <trkpt lat="59.9554921" lon="17.716393">
        <ele>57.3358</ele>
        <time>2014-06-25T19:26:13Z</time>
      </trkpt>
      <trkpt lat="59.9554828" lon="17.716346">
        <ele>56.8551</ele>
        <time>2014-06-25T19:26:14Z</time>
      </trkpt>
      <trkpt lat="59.9554885" lon="17.7162911">
        <ele>56.3745</ele>
        <time>2014-06-25T19:26:15Z</time>
      </trkpt>
      <trkpt lat="59.9554981" lon="17.7162247">
        <ele>55.8938</ele>
        <time>2014-06-25T19:26:16Z</time>
      </trkpt>
      <trkpt lat="59.9555009" lon="17.7161735">
        <ele>55.8938</ele>
        <time>2014-06-25T19:26:17Z</time>
      </trkpt>
      <trkpt lat="59.9554959" lon="17.7161255">
        <ele>54.9324</ele>
        <time>2014-06-25T19:26:18Z</time>
      </trkpt>
      <trkpt lat="59.9554883" lon="17.7160734">
        <ele>54.4518</ele>
        <time>2014-06-25T19:26:19Z</time>
      </trkpt>
      <trkpt lat="59.9554832" lon="17.7160181">
        <ele>53.4905</ele>
        <time>2014-06-25T19:26:20Z</time>
      </trkpt>
      <trkpt lat="59.9554733" lon="17.7159629">
        <ele>53.0098</ele>
        <time>2014-06-25T19:26:21Z</time>
      </trkpt>
      <trkpt lat="59.9554553" lon="17.7159127">
        <ele>52.5292</ele>
        <time>2014-06-25T19:26:22Z</time>
      </trkpt>
      <trkpt lat="59.9554386" lon="17.7158569">
        <ele>52.0486</ele>
        <time>2014-06-25T19:26:23Z</time>
      </trkpt>
      <trkpt lat="59.9554312" lon="17.7157957">
        <ele>52.0486</ele>
        <time>2014-06-25T19:26:24Z</time>
      </trkpt>
      <trkpt lat="59.9554267" lon="17.7157401">
        <ele>52.0486</ele>
        <time>2014-06-25T19:26:25Z</time>
      </trkpt>
      <trkpt lat="59.9554142" lon="17.7156895">
        <ele>51.5679</ele>
        <time>2014-06-25T19:26:26Z</time>
      </trkpt>
      <trkpt lat="59.9554025" lon="17.7156409">
        <ele>51.5679</ele>
        <time>2014-06-25T19:26:27Z</time>
      </trkpt>
      <trkpt lat="59.9553961" lon="17.7155923">
        <ele>52.0486</ele>
        <time>2014-06-25T19:26:28Z</time>
      </trkpt>
      <trkpt lat="59.9553941" lon="17.7155532">
        <ele>52.5292</ele>
        <time>2014-06-25T19:26:29Z</time>
      </trkpt>
      <trkpt lat="59.9553919" lon="17.7155071">
        <ele>53.0098</ele>
        <time>2014-06-25T19:26:30Z</time>
      </trkpt>
      <trkpt lat="59.955393" lon="17.7154461">
        <ele>53.0098</ele>
        <time>2014-06-25T19:26:31Z</time>
      </trkpt>
      <trkpt lat="59.9554055" lon="17.7153861">
        <ele>53.0098</ele>
        <time>2014-06-25T19:26:32Z</time>
      </trkpt>
      <trkpt lat="59.9554174" lon="17.7153397">
        <ele>53.4905</ele>
        <time>2014-06-25T19:26:33Z</time>
      </trkpt>
      <trkpt lat="59.9554174" lon="17.7152934">
        <ele>53.4905</ele>
        <time>2014-06-25T19:26:34Z</time>
      </trkpt>
      <trkpt lat="59.9554053" lon="17.7152264">
        <ele>53.4905</ele>
        <time>2014-06-25T19:26:35Z</time>
      </trkpt>
      <trkpt lat="59.9553982" lon="17.7151669">
        <ele>53.9712</ele>
        <time>2014-06-25T19:26:36Z</time>
      </trkpt>
      <trkpt lat="59.9553962" lon="17.7151161">
        <ele>54.4518</ele>
        <time>2014-06-25T19:26:37Z</time>
      </trkpt>
      <trkpt lat="59.9554055" lon="17.7150679">
        <ele>53.4905</ele>
        <time>2014-06-25T19:26:38Z</time>
      </trkpt>
      <trkpt lat="59.9554106" lon="17.7150156">
        <ele>53.4905</ele>
        <time>2014-06-25T19:26:39Z</time>
      </trkpt>
      <trkpt lat="59.9554271" lon="17.7149731">
        <ele>54.4518</ele>
        <time>2014-06-25T19:26:40Z</time>
      </trkpt>
    </trkseg>
  </trk>
</gpx>